M I D A S
Marine Information and Data Acquisition System
Tripno 673 of the Zeeleeuw from 2004-03-22 09:02:38 to 2004-03-22 14:32:03
Back to CruiseResearch ActivitiesStationsMapUnderway DataData graphs

EquipmentUnitsComment
TimeDGPSUTC
LatitudeDGPSDM.mWGS84
LongitudeDGPSDM.mWGS84
TemperatureSBE03/SBE38deg celciusITS90
ConductivitySBE21S/mITS90
SalinitySBE21 Practical Salinity Units
ChlorophylAChelsea fluorimeterg/lCalibrated in Aceton
Missing or incorrect values are displayed as -999
Sea surface data collected by the RV Zeeleeuw from 2004-03-22 09:02:38 to 2004-03-22 14:32:03
                                                                                    Next 1000 lines
Time Latitude Longitude Temperature Conductivity Salinity ChlorophylA
2004-03-22 09:02:46 51°13.592 2°56.107 8.51158 3.170734 29.647334 17.826341
2004-03-22 09:02:50 51°13.592 2°56.106 8.511628 3.171155 29.652388 17.253281
2004-03-22 09:02:55 51°13.592 2°56.106 8.51398 3.171366 29.654566 17.354409
2004-03-22 09:03:00 51°13.592 2°56.105 8.51398 3.171366 29.654566 17.354409
2004-03-22 09:03:05 51°13.592 2°56.105 8.527175 3.171471 29.655655 17.556665
2004-03-22 09:03:10 51°13.592 2°56.105 8.531685 3.171576 29.656745 16.71393
2004-03-22 09:03:14 51°13.592 2°56.105 8.534516 3.171787 29.658227 16.579093
2004-03-22 09:03:20 51°13.592 2°56.105 8.536099 3.166522 29.602381 17.051024
2004-03-22 09:03:26 51°13.591 2°56.105 8.537442 3.138829 29.311368 17.792631
2004-03-22 09:03:30 51°13.591 2°56.105 8.537442 3.138829 29.311368 17.792631
2004-03-22 09:03:34 51°13.592 2°56.104 8.538353 3.112401 29.03318 17.421828
2004-03-22 09:03:40 51°13.592 2°56.102 8.541519 3.084501 28.742964 17.354409
2004-03-22 09:03:46 51°13.593 2°56.099 8.54291 3.06176 28.506244 17.421828
2004-03-22 09:03:50 51°13.593 2°56.096 8.546028 3.04281 28.310093 17.253281
2004-03-22 09:03:56 51°13.594 2°56.091 8.549289 3.024598 28.121047 17.489247
2004-03-22 09:04:02 51°13.595 2°56.085 8.549289 3.024598 28.121047 17.489247
2004-03-22 09:04:06 51°13.596 2°56.082 8.543966 3.003544 27.904351 18.230853
2004-03-22 09:04:11 51°13.597 2°56.076 8.538929 2.993018 27.793808 17.792631
2004-03-22 09:04:16 51°13.598 2°56.071 8.537346 2.975755 27.615636 18.264563
2004-03-22 09:04:20 51°13.599 2°56.067 8.54339 2.962808 27.48115 18.43311
2004-03-22 09:04:26 51°13.6 2°56.06 8.549146 2.966807 27.52209 21.871469
2004-03-22 09:04:30 51°13.602 2°56.055 8.549146 2.966807 27.52209 21.871469
2004-03-22 09:04:36 51°13.604 2°56.048 8.556675 2.978597 27.647338 26.624494
2004-03-22 09:04:40 51°13.605 2°56.042 8.566266 2.977018 27.631813 27.029007
2004-03-22 09:04:46 51°13.607 2°56.035 8.571061 2.956387 27.419949 29.725759
2004-03-22 09:04:51 51°13.609 2°56.028 8.572451 2.916917 27.012632 28.714477
2004-03-22 09:04:56 51°13.612 2°56.021 8.573362 2.87966 26.627494 29.321247
2004-03-22 09:05:01 51°13.614 2°56.013 8.573362 2.87966 26.627494 29.321247
2004-03-22 09:05:06 51°13.617 2°56.006 8.570102 2.835986 26.177301 28.343674
2004-03-22 09:05:11 51°13.62 2°55.998 8.568376 2.806627 25.874111 28.343674
2004-03-22 09:05:16 51°13.623 2°55.991 8.567848 2.794526 25.750083 26.590785
2004-03-22 09:05:20 51°13.625 2°55.985 8.567273 2.783583 25.637278 27.871742
2004-03-22 09:05:26 51°13.629 2°55.975 8.565499 2.786739 25.669891 25.073862
2004-03-22 09:05:30 51°13.631 2°55.969 8.565499 2.786739 25.669891 25.073862
2004-03-22 09:05:36 51°13.635 2°55.96 8.554181 2.791685 25.720657 25.276118
2004-03-22 09:05:41 51°13.638 2°55.952 8.53984 2.792632 25.730867 24.770477
2004-03-22 09:05:46 51°13.641 2°55.944 8.527031 2.796104 25.766098 24.028871
2004-03-22 09:05:51 51°13.644 2°55.936 8.508893 2.805154 25.859155 23.287264
2004-03-22 09:05:56 51°13.647 2°55.928 8.49627 2.831671 26.133431 22.983879
2004-03-22 09:06:00 51°13.649 2°55.922 8.49627 2.831671 26.133431 22.983879
2004-03-22 09:06:06 51°13.653 2°55.912 8.483548 2.871767 26.549549 23.624358
2004-03-22 09:06:10 51°13.655 2°55.905 8.470968 2.904182 26.88829 22.410819
2004-03-22 09:06:16 51°13.658 2°55.895 8.463188 2.930705 27.168772 21.399537
2004-03-22 09:06:21 51°13.661 2°55.886 8.455936 2.962492 27.505005 22.006306
2004-03-22 09:06:26 51°13.664 2°55.876 8.443687 2.992281 27.822143 21.837759
2004-03-22 09:06:31 51°13.667 2°55.867 8.443687 2.992281 27.822143 21.837759
2004-03-22 09:06:36 51°13.669 2°55.857 8.439411 3.015546 28.070923 21.568084
2004-03-22 09:06:41 51°13.672 2°55.848 8.433069 3.032073 28.248822 21.871469
2004-03-22 09:06:46 51°13.674 2°55.839 8.427639 3.043653 28.375336 23.691777
2004-03-22 09:06:51 51°13.676 2°55.829 8.423122 3.058603 28.535361 20.826477
2004-03-22 09:06:56 51°13.678 2°55.821 8.423315 3.073447 28.695831 22.747913
2004-03-22 09:07:01 51°13.68 2°55.812 8.423315 3.073447 28.695831 22.747913
2004-03-22 09:07:06 51°13.681 2°55.804 8.42812 3.085554 28.824839 21.871469
2004-03-22 09:07:11 51°13.683 2°55.797 8.429754 3.095451 28.931797 21.399537
2004-03-22 09:07:16 51°13.684 2°55.79 8.434703 3.104611 29.030538 21.028734
2004-03-22 09:07:20 51°13.685 2°55.785 8.440324 3.104085 29.02783 21.568084
2004-03-22 09:07:26 51°13.686 2°55.779 8.44215 3.09482 28.930038 21.2647
2004-03-22 09:07:30 51°13.686 2°55.775 8.44215 3.09482 28.930038 21.2647
2004-03-22 09:07:34 51°13.687 2°55.772 8.452334 3.08029 28.779304 21.500665
2004-03-22 09:07:40 51°13.687 2°55.768 8.452142 3.064604 28.614716 22.781623
2004-03-22 09:07:46 51°13.688 2°55.766 8.453631 3.041864 28.377593 21.736631
2004-03-22 09:07:50 51°13.688 2°55.765 8.456224 3.021546 28.165694 20.624221
2004-03-22 09:07:56 51°13.689 2°55.765 8.461123 2.98565 27.791951 20.624221
2004-03-22 09:08:00 51°13.689 2°55.766 8.461123 2.98565 27.791951 20.624221
2004-03-22 09:08:06 51°13.69 2°55.768 8.463044 2.956598 27.490445 21.905178
2004-03-22 09:08:10 51°13.691 2°55.77 8.463957 2.921549 27.130543 22.37711
2004-03-22 09:08:14 51°13.692 2°55.771 8.464533 2.893658 26.843199 22.781623
2004-03-22 09:08:20 51°13.693 2°55.773 8.461892 2.852404 26.419216 22.95017
2004-03-22 09:08:26 51°13.693 2°55.772 8.461748 2.820518 26.092199 22.983879
2004-03-22 09:08:30 51°13.693 2°55.772 8.461748 2.820518 26.092199 22.983879
2004-03-22 09:08:35 51°13.692 2°55.77 8.459923 2.79842 25.865932 23.118717
2004-03-22 09:08:40 51°13.691 2°55.767 8.459298 2.786845 25.747549 24.770477
2004-03-22 09:08:44 51°13.689 2°55.764 8.459154 2.780427 25.68287 23.48952
2004-03-22 09:08:50 51°13.687 2°55.76 8.457521 2.77464 25.624627 24.871606
2004-03-22 09:08:56 51°13.684 2°55.756 8.447866 2.758962 25.465893 25.343537
2004-03-22 09:09:01 51°13.682 2°55.753 8.447866 2.758962 25.465893 25.343537
2004-03-22 09:09:06 51°13.68 2°55.75 8.439411 2.748862 25.363896 25.242409
2004-03-22 09:09:10 51°13.68 2°55.749 8.429369 2.746126 25.336714 25.073862
2004-03-22 09:09:16 51°13.679 2°55.748 8.417403 2.748546 25.362478 25.916597
2004-03-22 09:09:20 51°13.68 2°55.748 8.414616 2.785057 25.737215 25.2087
2004-03-22 09:09:26 51°13.682 2°55.748 8.410915 2.830725 26.207321 26.388529
2004-03-22 09:09:30 51°13.684 2°55.749 8.410915 2.830725 26.207321 26.388529
2004-03-22 09:09:36 51°13.687 2°55.749 8.412069 2.868716 26.600142 25.276118
2004-03-22 09:09:40 51°13.69 2°55.748 8.416106 2.917023 27.102678 25.17499
2004-03-22 09:09:46 51°13.695 2°55.746 8.425477 2.944073 27.385816 24.332255
2004-03-22 09:09:50 51°13.698 2°55.745 8.435183 2.959651 27.54962 24.028871
2004-03-22 09:09:56 51°13.702 2°55.741 8.435856 2.941336 27.3616 23.759195
2004-03-22 09:10:00 51°13.706 2°55.738 8.435856 2.941336 27.3616 23.759195
2004-03-22 09:10:06 51°13.711 2°55.733 8.433934 2.893974 26.875493 25.17499
2004-03-22 09:10:10 51°13.715 2°55.729 8.43403 2.840828 26.327714 24.534512
2004-03-22 09:10:15 51°13.72 2°55.724 8.427015 2.791791 25.823348 25.512084
2004-03-22 09:10:20 51°13.726 2°55.719 8.428937 2.762961 25.526911 25.74805
2004-03-22 09:10:25 51°13.732 2°55.713 8.441381 2.750861 25.403299 27.130136
2004-03-22 09:10:31 51°13.74 2°55.706 8.441381 2.750861 25.403299 27.130136
2004-03-22 09:10:35 51°13.745 2°55.702 8.445753 2.752229 25.417201 26.995298
2004-03-22 09:10:41 51°13.754 2°55.694 8.445705 2.771273 25.612666 26.89417
2004-03-22 09:10:45 51°13.76 2°55.689 8.442006 2.7819 25.720213 27.029007
2004-03-22 09:10:50 51°13.767 2°55.683 8.436529 2.747915 25.370973 27.500939
2004-03-22 09:10:56 51°13.777 2°55.675 8.432781 2.72561 25.140317 28.377383
2004-03-22 09:11:01 51°13.785 2°55.669 8.432781 2.72561 25.140317 28.377383
2004-03-22 09:11:05 51°13.791 2°55.664 8.435472 2.721086 25.093231 28.478512
2004-03-22 09:11:11 51°13.801 2°55.656 8.442438 2.721822 25.101293 27.46723
2004-03-22 09:11:15 51°13.808 2°55.651 8.448875 2.724873 25.135206 27.062717
2004-03-22 09:11:21 51°13.819 2°55.643 8.454591 2.724663 25.134253 28.040289
2004-03-22 09:11:25 51°13.826 2°55.638 8.457713 2.706778 24.953983 27.635777
2004-03-22 09:11:31 51°13.836 2°55.63 8.457713 2.706778 24.953983 27.635777
2004-03-22 09:11:36 51°13.845 2°55.623 8.458242 2.672166 24.599818 28.647059
2004-03-22 09:11:40 51°13.853 2°55.618 8.462132 2.639662 24.268203 28.175127
2004-03-22 09:11:45 51°13.862 2°55.612 8.472697 2.60474 23.912252 28.984153
2004-03-22 09:11:51 51°13.873 2°55.604 8.481628 2.57855 23.64605 28.00658
2004-03-22 09:11:55 51°13.881 2°55.599 8.48182 2.569295 23.551191 29.017862
2004-03-22 09:12:01 51°13.892 2°55.591 8.48182 2.569295 23.551191 29.017862
2004-03-22 09:12:05 51°13.899 2°55.586 8.472841 2.561932 23.474887 27.669486
2004-03-22 09:12:11 51°13.911 2°55.577 8.467943 2.546367 23.31395 27.568358
2004-03-22 09:12:16 51°13.92 2°55.57 8.462468 2.532801 23.17218 27.602067
2004-03-22 09:12:21 51°13.93 2°55.563 8.456897 2.545631 23.298343 26.2874
2004-03-22 09:12:25 51°13.937 2°55.557 8.453246 2.584124 23.688846 26.961589
2004-03-22 09:12:31 51°13.949 2°55.549 8.453246 2.584124 23.688846 26.961589
2004-03-22 09:12:35 51°13.956 2°55.543 8.45243 2.618519 24.038285 25.984016
2004-03-22 09:12:41 51°13.968 2°55.535 8.457713 2.645131 24.309772 25.781759
2004-03-22 09:12:45 51°13.975 2°55.529 8.468087 2.670062 24.564664 25.545794
2004-03-22 09:12:51 51°13.987 2°55.521 8.477018 2.691207 24.780416 25.17499
2004-03-22 09:12:56 51°13.996 2°55.514 8.473513 2.697204 24.843485 25.815469
2004-03-22 09:13:01 51°14.006 2°55.507 8.473513 2.697204 24.843485 25.815469
2004-03-22 09:13:05 51°14.014 2°55.501 8.464533 2.687736 24.746425 25.512084
2004-03-22 09:13:11 51°14.025 2°55.493 8.449884 2.658912 24.449601 24.703059
2004-03-22 09:13:15 51°14.033 2°55.488 8.440468 2.616099 24.012754 25.950306
2004-03-22 09:13:21 51°14.044 2°55.479 8.436529 2.570136 23.54915 24.736768
2004-03-22 09:13:25 51°14.052 2°55.474 8.433021 2.546367 23.312307 23.455811
2004-03-22 09:13:31 51°14.064 2°55.466 8.433021 2.546367 23.312307 23.455811
2004-03-22 09:13:35 51°14.071 2°55.461 8.429562 2.519971 23.053111 25.242409
2004-03-22 09:13:41 51°14.083 2°55.452 8.432733 2.50283 22.887525 24.06258
2004-03-22 09:13:45 51°14.091 2°55.447 8.438162 2.490631 22.768898 22.882751
2004-03-22 09:13:51 51°14.103 2°55.437 8.442534 2.487477 22.740465 22.983879
2004-03-22 09:13:56 51°14.113 2°55.429 8.443062 2.480957 22.677747 21.500665
2004-03-22 09:14:00 51°14.122 2°55.422 8.443062 2.480957 22.677747 21.500665
2004-03-22 09:14:05 51°14.133 2°55.413 8.435279 2.477067 22.638735 23.017589
2004-03-22 09:14:11 51°14.146 2°55.401 8.432541 2.484743 22.714111 21.568084
2004-03-22 09:14:15 51°14.156 2°55.393 8.431772 2.492735 22.791601 20.995024
2004-03-22 09:14:21 51°14.169 2°55.38 8.434607 2.491052 22.774188 21.500665
2004-03-22 09:14:25 51°14.178 2°55.371 8.430571 2.473807 22.602868 20.995024
2004-03-22 09:14:29 51°14.187 2°55.362 8.430571 2.473807 22.602868 20.995024
2004-03-22 09:14:36 51°14.202 2°55.344 8.418509 2.451726 22.383774 20.590512
2004-03-22 09:14:41 51°14.213 2°55.331 8.407695 2.412298 21.990939 20.759059
2004-03-22 09:14:45 51°14.221 2°55.321 8.402647 2.378656 21.655034 19.612939
2004-03-22 09:14:51 51°14.234 2°55.304 8.408127 2.362887 21.498799 20.893896
2004-03-22 09:14:55 51°14.242 2°55.292 8.406397 2.358577 21.460884 20.759059
2004-03-22 09:15:01 51°14.255 2°55.273 8.406397 2.358577 21.460884 20.759059
2004-03-22 09:15:05 51°14.263 2°55.26 8.402167 2.354267 21.422458 20.961315
2004-03-22 09:15:11 51°14.275 2°55.24 8.400724 2.340286 21.287147 21.332118
2004-03-22 09:15:16 51°14.285 2°55.222 8.394859 2.326201 21.147363 21.096153
2004-03-22 09:15:21 51°14.295 2°55.204 8.399523 2.340602 21.29079 21.500665
2004-03-22 09:15:25 51°14.302 2°55.19 8.403368 2.358787 21.474087 22.275982
2004-03-22 09:15:31 51°14.313 2°55.168 8.403368 2.358787 21.474087 22.275982
2004-03-22 09:15:36 51°14.323 2°55.15 8.404138 2.376448 21.651841 21.871469
2004-03-22 09:15:41 51°14.332 2°55.131 8.398177 2.384333 21.732618 20.860187
2004-03-22 09:15:45 51°14.34 2°55.116 8.389475 2.397264 21.86131 21.466956
2004-03-22 09:15:51 51°14.352 2°55.094 8.383656 2.411142 21.999032 22.242272
2004-03-22 09:15:55 51°14.361 2°55.08 8.380483 2.422391 22.110019 21.837759
2004-03-22 09:16:01 51°14.374 2°55.061 8.380483 2.422391 22.110019 21.837759
2004-03-22 09:16:05 51°14.383 2°55.047 8.36644 2.428279 22.170511 19.983742
2004-03-22 09:16:11 51°14.397 2°55.027 8.359369 2.447836 22.370063 21.433247
2004-03-22 09:16:16 51°14.408 2°55.009 8.346187 2.483692 22.732954 20.995024
2004-03-22 09:16:21 51°14.419 2°54.991 8.338248 2.525966 23.161732 21.433247
2004-03-22 09:16:26 51°14.43 2°54.972 8.331078 2.587806 23.791285 20.556802
2004-03-22 09:16:31 51°14.441 2°54.954 8.331078 2.587806 23.791285 20.556802
2004-03-22 09:16:36 51°14.452 2°54.935 8.318131 2.645027 24.375708 20.556802
2004-03-22 09:16:41 51°14.463 2°54.916 8.290592 2.721718 25.160565 20.320836
2004-03-22 09:16:45 51°14.472 2°54.901 8.25914 2.786846 25.831323 20.152289
2004-03-22 09:16:51 51°14.486 2°54.878 8.204965 2.836304 26.342887 19.714067
2004-03-22 09:16:55 51°14.495 2°54.863 8.161071 2.886082 26.86172 20.421965
2004-03-22 09:17:01 51°14.508 2°54.841 8.161071 2.886082 26.86172 20.421965
2004-03-22 09:17:05 51°14.517 2°54.827 8.135975 2.9486 27.518426 20.287127
2004-03-22 09:17:11 51°14.531 2°54.806 8.106378 3.013758 28.212999 19.410683
2004-03-22 09:17:16 51°14.543 2°54.79 8.092468 3.112404 29.266142 21.197281
2004-03-22 09:17:21 51°14.556 2°54.775 8.068312 3.196852 30.183608 22.309691
2004-03-22 09:17:25 51°14.566 2°54.764 8.057729 3.256878 30.834382 21.837759
2004-03-22 09:17:31 51°14.582 2°54.748 8.057729 3.256878 30.834382 21.837759
2004-03-22 09:17:35 51°14.593 2°54.736 8.040666 3.307747 31.393765 21.938888
2004-03-22 09:17:41 51°14.609 2°54.72 8.026791 3.347139 31.832725 22.545657
2004-03-22 09:17:45 51°14.619 2°54.71 8.012767 3.377581 32.169294 23.422101
2004-03-22 09:17:51 51°14.635 2°54.695 8.003964 3.404442 32.471062 24.096289
2004-03-22 09:17:55 51°14.646 2°54.685 7.999272 3.432674 32.785702 22.882751
2004-03-22 09:18:01 51°14.661 2°54.669 7.999272 3.432674 32.785702 22.882751
2004-03-22 09:18:05 51°14.671 2°54.658 7.99071 3.453743 33.024175 25.141281
2004-03-22 09:18:11 51°14.685 2°54.64 7.983646 3.468913 33.198779 23.792905
2004-03-22 09:18:15 51°14.693 2°54.628 7.979968 3.47692 33.293442 25.309828
2004-03-22 09:18:21 51°14.703 2°54.611 7.973 3.483663 33.372345 25.2087
2004-03-22 09:18:25 51°14.709 2°54.599 7.969371 3.493144 33.482074 25.444665
2004-03-22 09:18:31 51°14.716 2°54.582 7.969371 3.493144 33.482074 25.444665
2004-03-22 09:18:36 51°14.721 2°54.569 7.956932 3.498939 33.551008 24.939024
2004-03-22 09:18:40 51°14.724 2°54.559 7.949235 3.501362 33.582446 25.040153
2004-03-22 09:18:45 51°14.727 2°54.546 7.936647 3.506103 33.639414 25.613212
2004-03-22 09:18:51 51°14.73 2°54.533 7.93195 3.507684 33.662704 23.961452
2004-03-22 09:18:56 51°14.732 2°54.523 7.924783 3.510318 33.698049 23.422101
2004-03-22 09:19:01 51°14.733 2°54.514 7.924783 3.510318 33.698049 23.422101
2004-03-22 09:19:05 51°14.733 2°54.508 7.915968 3.512004 33.724908 21.938888
2004-03-22 09:19:09 51°14.733 2°54.502 7.916113 3.514848 33.764965 21.972597
2004-03-22 09:19:16 51°14.733 2°54.494 7.911802 3.516218 33.787676 21.837759
2004-03-22 09:19:21 51°14.733 2°54.488 7.904051 3.515691 33.786903 22.579366
2004-03-22 09:19:25 51°14.733 2°54.484 7.895428 3.515586 33.790632 22.37711
2004-03-22 09:19:31 51°14.732 2°54.477 7.895428 3.515586 33.790632 22.37711
2004-03-22 09:19:35 51°14.732 2°54.474 7.894604 3.515902 33.799675 20.017452
2004-03-22 09:19:41 51°14.731 2°54.468 7.88656 3.516534 33.812099 21.096153
2004-03-22 09:19:46 51°14.73 2°54.463 7.886027 3.517167 33.823717 20.523093
2004-03-22 09:19:51 51°14.729 2°54.458 7.884186 3.518431 33.843719 20.792768
2004-03-22 09:19:56 51°14.728 2°54.454 7.879873 3.518642 33.851651 20.826477
2004-03-22 09:20:01 51°14.728 2°54.45 7.879873 3.518642 33.851651 20.826477
2004-03-22 09:20:05 51°14.727 2°54.446 7.881084 3.520117 33.871485 20.995024
2004-03-22 09:20:11 51°14.725 2°54.442 7.878128 3.520011 33.874418 20.320836
2004-03-22 09:20:16 51°14.724 2°54.439 7.879243 3.519801 33.873789 20.051161
2004-03-22 09:20:21 51°14.723 2°54.435 7.879049 3.519906 33.878165 19.781486
2004-03-22 09:20:26 51°14.721 2°54.432 7.872942 3.519801 33.877851 19.916324
2004-03-22 09:20:29 51°14.72 2°54.43 7.872942 3.519801 33.877851 19.916324
2004-03-22 09:20:35 51°14.719 2°54.427 7.873185 3.520328 33.885925 20.556802
2004-03-22 09:20:41 51°14.717 2°54.423 7.86795 3.520222 33.884797 20.320836
2004-03-22 09:20:45 51°14.716 2°54.421 7.869695 3.520012 33.883355 20.455674
2004-03-22 09:20:51 51°14.714 2°54.418 7.866399 3.521171 33.899008 19.073589
2004-03-22 09:20:55 51°14.713 2°54.416 7.863102 3.52096 33.899193 19.815195
2004-03-22 09:21:01 51°14.711 2°54.414 7.863102 3.52096 33.899193 19.815195
2004-03-22 09:21:05 51°14.71 2°54.412 7.860969 3.520644 33.897437 20.489383
2004-03-22 09:21:11 51°14.708 2°54.41 7.861648 3.520433 33.896808 20.556802
2004-03-22 09:21:15 51°14.707 2°54.409 7.864654 3.521381 33.908584 20.995024
2004-03-22 09:21:21 51°14.705 2°54.408 7.858933 3.521381 33.911025 21.197281
2004-03-22 09:21:25 51°14.703 2°54.407 7.859757 3.521697 33.916036 20.320836
2004-03-22 09:21:31 51°14.701 2°54.406 7.859757 3.521697 33.916036 20.320836
2004-03-22 09:21:35 51°14.699 2°54.405 7.860242 3.521276 33.912338 21.096153
2004-03-22 09:21:39 51°14.698 2°54.405 7.859903 3.521276 33.912338 20.051161
2004-03-22 09:21:46 51°14.696 2°54.404 7.85777 3.521697 33.916036 21.500665
2004-03-22 09:21:51 51°14.694 2°54.404 7.856994 3.521381 33.915908 23.017589
2004-03-22 09:21:55 51°14.693 2°54.404 7.853988 3.521697 33.920106 21.905178
2004-03-22 09:22:01 51°14.691 2°54.403 7.853988 3.521697 33.920106 21.905178
2004-03-22 09:22:06 51°14.69 2°54.403 7.85457 3.521381 33.915908 21.096153
2004-03-22 09:22:11 51°14.689 2°54.403 7.851079 3.521697 33.920106 22.511947
2004-03-22 09:22:16 51°14.687 2°54.403 7.850449 3.518221 33.88451 22.37711
2004-03-22 09:22:21 51°14.686 2°54.403 7.84657 3.521908 33.926433 21.770341
2004-03-22 09:22:25 51°14.685 2°54.403 7.846861 3.521276 33.923735 21.905178
2004-03-22 09:22:31 51°14.684 2°54.403 7.846861 3.521276 33.923735 21.905178
2004-03-22 09:22:36 51°14.682 2°54.403 7.845503 3.521381 33.923235 20.725349
2004-03-22 09:22:41 51°14.681 2°54.403 7.844727 3.521487 33.925992 22.107435
2004-03-22 09:22:45 51°14.68 2°54.402 7.844873 3.521382 33.927307 21.905178
2004-03-22 09:22:51 51°14.679 2°54.402 7.845164 3.521276 33.926178 22.478238
2004-03-22 09:22:56 51°14.678 2°54.402 7.841187 3.52096 33.922793 22.680494
2004-03-22 09:23:01 51°14.676 2°54.402 7.841187 3.52096 33.922793 22.680494
2004-03-22 09:23:05 51°14.675 2°54.401 7.841915 3.520328 33.920095 22.983879
2004-03-22 09:23:11 51°14.673 2°54.401 7.841478 3.520539 33.921538 23.152426
2004-03-22 09:23:15 51°14.673 2°54.401 7.840072 3.520433 33.922038 24.028871
2004-03-22 09:23:21 51°14.671 2°54.4 7.842691 3.520644 33.926739 23.725486
2004-03-22 09:23:25 51°14.67 2°54.401 7.84109 3.520539 33.923167 22.95017
2004-03-22 09:23:31 51°14.668 2°54.4 7.84109 3.520539 33.923167 22.95017
2004-03-22 09:23:35 51°14.667 2°54.4 7.840218 3.520749 33.927053 23.961452
2004-03-22 09:23:41 51°14.666 2°54.399 7.841721 3.521066 33.931253 24.096289
2004-03-22 09:23:45 51°14.665 2°54.399 7.840799 3.520223 33.922225 23.995161
2004-03-22 09:23:51 51°14.663 2°54.399 7.839733 3.519907 33.918025 23.152426
2004-03-22 09:23:55 51°14.662 2°54.398 7.839781 3.519801 33.918525 24.129999
2004-03-22 09:24:00 51°14.661 2°54.398 7.839781 3.519801 33.918525 24.129999
2004-03-22 09:24:05 51°14.66 2°54.398 7.840218 3.520117 33.922725 22.95017
2004-03-22 09:24:11 51°14.658 2°54.397 7.843612 3.520328 33.924168 22.613076
2004-03-22 09:24:16 51°14.657 2°54.397 7.842206 3.520223 33.923039 23.658067
2004-03-22 09:24:21 51°14.655 2°54.396 7.841333 3.520539 33.926425 24.028871
2004-03-22 09:24:25 51°14.654 2°54.396 7.839005 3.519801 33.917711 22.95017
2004-03-22 09:24:31 51°14.653 2°54.396 7.839005 3.519801 33.917711 22.95017
2004-03-22 09:24:35 51°14.652 2°54.395 7.840363 3.518537 33.906611 23.556939
2004-03-22 09:24:40 51°14.65 2°54.395 7.840266 3.519907 33.919654 22.37711
2004-03-22 09:24:45 51°14.649 2°54.395 7.840703 3.519907 33.920468 23.826614
2004-03-22 09:24:51 51°14.647 2°54.394 7.840509 3.520539 33.92724 23.995161
2004-03-22 09:24:55 51°14.646 2°54.393 7.841915 3.520539 33.92724 28.00658
2004-03-22 09:25:01 51°14.645 2°54.393 7.841915 3.520539 33.92724 28.00658
2004-03-22 09:25:06 51°14.643 2°54.393 7.840169 3.508212 33.792794 33.770888
2004-03-22 09:25:11 51°14.64 2°54.392 7.840848 3.519591 33.91301 27.669486
2004-03-22 09:25:16 51°14.636 2°54.392 7.840799 3.521171 33.931567 26.624494
2004-03-22 09:25:21 51°14.633 2°54.391 7.839878 3.521698 33.930692 25.815469
2004-03-22 09:25:26 51°14.628 2°54.391 7.83692 3.516957 33.884801 25.343537
2004-03-22 09:25:31 51°14.624 2°54.392 7.83692 3.516957 33.884801 25.343537
2004-03-22 09:25:35 51°14.62 2°54.393 7.838617 3.521382 33.933824 25.680631
2004-03-22 09:25:41 51°14.613 2°54.395 7.841721 3.521276 33.93351 26.557076
2004-03-22 09:25:45 51°14.61 2°54.398 7.844388 3.521066 33.932883 25.714341
2004-03-22 09:25:51 51°14.604 2°54.403 7.845018 3.521382 33.937899 25.815469
2004-03-22 09:25:56 51°14.599 2°54.409 7.844242 3.520644 33.930813 25.2087
2004-03-22 09:26:01 51°14.595 2°54.415 7.844242 3.520644 33.930813 25.2087
2004-03-22 09:26:05 51°14.593 2°54.421 7.845843 3.520855 33.930626 24.905315
2004-03-22 09:26:11 51°14.59 2°54.43 7.84657 3.521382 33.934639 24.264836
2004-03-22 09:26:16 51°14.588 2°54.438 7.847831 3.521382 33.933824 23.017589
2004-03-22 09:26:20 51°14.587 2°54.444 7.849722 3.521382 33.933009 23.759195
2004-03-22 09:26:27 51°14.587 2°54.456 7.852825 3.521908 33.940282 24.467093
2004-03-22 09:26:31 51°14.588 2°54.462 7.852825 3.521908 33.940282 24.467093
2004-03-22 09:26:36 51°14.59 2°54.47 7.85617 3.521487 33.934138 24.028871
2004-03-22 09:26:41 51°14.592 2°54.477 7.859321 3.521487 33.934138 24.905315
2004-03-22 09:26:45 51°14.595 2°54.483 7.862957 3.522014 33.938151 23.017589
2004-03-22 09:26:51 51°14.599 2°54.489 7.868434 3.522014 33.935707 24.534512
2004-03-22 09:26:55 51°14.603 2°54.493 7.870567 3.52254 33.93809 22.613076
2004-03-22 09:27:01 51°14.608 2°54.497 7.870567 3.52254 33.93809 22.613076
2004-03-22 09:27:06 51°14.613 2°54.499 7.8727 3.522962 33.940159 22.174853
2004-03-22 09:27:11 51°14.619 2°54.5 7.876286 3.522856 33.937401 22.815332
2004-03-22 09:27:16 51°14.625 2°54.499 7.878467 3.523278 33.936212 23.017589
2004-03-22 09:27:21 51°14.631 2°54.498 7.880212 3.523172 33.931013 23.186136
2004-03-22 09:27:25 51°14.635 2°54.495 7.883507 3.523172 33.931013 22.680494
2004-03-22 09:27:31 51°14.642 2°54.489 7.883507 3.523172 33.931013 22.680494
2004-03-22 09:27:35 51°14.647 2°54.484 7.884622 3.52391 33.935651 24.129999
2004-03-22 09:27:41 51°14.654 2°54.474 7.884622 3.52391 33.933209 23.556939
2004-03-22 09:27:45 51°14.66 2°54.466 7.884913 3.524015 33.93108 23.455811
2004-03-22 09:27:51 51°14.669 2°54.455 7.885204 3.524015 33.928638 23.995161
2004-03-22 09:27:55 51°14.676 2°54.448 7.885155 3.524015 33.929452 23.152426
2004-03-22 09:28:01 51°14.688 2°54.437 7.885155 3.524015 33.929452 23.152426
2004-03-22 09:28:05 51°14.697 2°54.43 7.886657 3.523804 33.927197 23.860324
2004-03-22 09:28:11 51°14.71 2°54.42 7.885834 3.524542 33.931021 23.455811
2004-03-22 09:28:15 51°14.72 2°54.414 7.882005 3.524437 33.929893 23.017589
2004-03-22 09:28:21 51°14.735 2°54.404 7.877062 3.524226 33.925197 21.938888
2004-03-22 09:28:25 51°14.745 2°54.397 7.873718 3.525174 33.936158 23.152426
2004-03-22 09:28:31 51°14.762 2°54.389 7.873718 3.525174 33.936158 23.152426
2004-03-22 09:28:35 51°14.772 2°54.383 7.866059 3.524437 33.927452 22.309691
2004-03-22 09:28:41 51°14.789 2°54.374 7.859709 3.524753 33.931648 22.006306
2004-03-22 09:28:45 51°14.801 2°54.368 7.858012 3.524753 33.935718 23.624358
2004-03-22 09:28:51 51°14.818 2°54.358 7.852922 3.524647 33.938661 22.006306
2004-03-22 09:28:55 51°14.83 2°54.352 7.849334 3.524647 33.945175 21.972597
2004-03-22 09:29:01 51°14.849 2°54.341 7.849334 3.524647 33.945175 21.972597
2004-03-22 09:29:05 51°14.862 2°54.334 7.844097 3.524648 33.950063 21.635503
2004-03-22 09:29:11 51°14.88 2°54.32 7.839781 3.523278 33.938656 21.466956
2004-03-22 09:29:16 51°14.895 2°54.307 7.838908 3.523278 33.941914 22.208563
2004-03-22 09:29:21 51°14.91 2°54.294 7.838472 3.523173 33.94649 22.3434
2004-03-22 09:29:25 51°14.922 2°54.284 7.834883 3.522857 33.947995 22.849042
2004-03-22 09:29:31 51°14.94 2°54.266 7.834883 3.522857 33.947995 22.849042
2004-03-22 09:29:36 51°14.955 2°54.252 7.835271 3.522435 33.948371 21.837759
2004-03-22 09:29:41 51°14.969 2°54.237 7.834447 3.521803 33.943229 22.511947
2004-03-22 09:29:45 51°14.981 2°54.225 7.832798 3.521698 33.943731 21.837759
2004-03-22 09:29:51 51°14.999 2°54.207 7.82528 3.521592 33.945048 21.871469
2004-03-22 09:29:56 51°15.014 2°54.192 7.824843 3.521382 33.943605 21.601794
2004-03-22 09:30:01 51°15.029 2°54.176 7.824843 3.521382 33.943605 21.601794
2004-03-22 09:30:05 51°15.041 2°54.164 7.818052 3.521066 33.940219 21.163571
2004-03-22 09:30:11 51°15.058 2°54.145 7.81063 3.52075 33.939278 21.433247
2004-03-22 09:30:15 51°15.071 2°54.133 7.798791 3.520539 33.940281 22.680494
2004-03-22 09:30:21 51°15.089 2°54.115 7.791463 3.520434 33.942414 20.860187
2004-03-22 09:30:25 51°15.101 2°54.103 7.786998 3.519591 33.939089 21.938888
2004-03-22 09:30:31 51°15.12 2°54.086 7.786998 3.519591 33.939089 21.938888
2004-03-22 09:30:36 51°15.136 2°54.073 7.782291 3.520434 33.953019 22.714204
2004-03-22 09:30:41 51°15.152 2°54.06 7.781514 3.518959 33.946182 21.062443
2004-03-22 09:30:45 51°15.164 2°54.049 7.782436 3.519064 33.953026 22.579366
2004-03-22 09:30:51 51°15.183 2°54.033 7.784038 3.51917 33.959056 22.242272
2004-03-22 09:30:55 51°15.196 2°54.022 7.788357 3.518748 33.960253 22.37711
2004-03-22 09:31:01 51°15.215 2°54.006 7.788357 3.518748 33.960253 22.37711
2004-03-22 09:31:05 51°15.228 2°53.994 7.790444 3.518538 33.959626 22.006306
2004-03-22 09:31:11 51°15.247 2°53.979 7.796365 3.518327 33.958182 22.849042
2004-03-22 09:31:16 51°15.263 2°53.965 7.798694 3.518748 33.963521 23.320973
2004-03-22 09:31:21 51°15.279 2°53.951 7.801023 3.518538 33.957992 22.849042
2004-03-22 09:31:25 51°15.291 2°53.94 7.801848 3.518959 33.960879 21.905178
2004-03-22 09:31:31 51°15.31 2°53.924 7.801848 3.518959 33.960879 21.905178
2004-03-22 09:31:35 51°15.323 2°53.912 7.80243 3.518854 33.955665 23.658067
2004-03-22 09:31:41 51°15.342 2°53.896 7.799664 3.518959 33.955162 21.601794
2004-03-22 09:31:45 51°15.355 2°53.885 7.795734 3.519486 33.957546 21.129862
2004-03-22 09:31:51 51°15.374 2°53.868 7.791318 3.51917 33.953339 20.860187
2004-03-22 09:31:56 51°15.39 2°53.855 7.783989 3.518959 33.950263 21.905178
2004-03-22 09:32:01 51°15.406 2°53.841 7.783989 3.518959 33.950263 21.905178
2004-03-22 09:32:05 51°15.419 2°53.83 7.767097 3.518959 33.949447 23.017589
2004-03-22 09:32:11 51°15.438 2°53.813 7.751316 3.519275 33.956919 21.399537
2004-03-22 09:32:16 51°15.454 2°53.8 7.726351 3.519064 33.956292 22.849042
2004-03-22 09:32:21 51°15.47 2°53.787 7.69117 3.518854 33.9622 21.770341
2004-03-22 09:32:25 51°15.482 2°53.775 7.659228 3.518748 33.969241 22.073725
2004-03-22 09:32:31 51°15.502 2°53.76 7.659228 3.518748 33.969241 22.073725
2004-03-22 09:32:35 51°15.514 2°53.748 7.63233 3.51759 33.971519 20.253418
2004-03-22 09:32:41 51°15.534 2°53.732 7.620604 3.516958 33.984369 20.11858
2004-03-22 09:32:45 51°15.546 2°53.721 7.609947 3.515483 33.994732 21.399537
2004-03-22 09:32:51 51°15.565 2°53.705 7.590233 3.514746 34.011406 21.669212
2004-03-22 09:32:55 51°15.578 2°53.694 7.579668 3.513271 34.024276 20.826477
2004-03-22 09:33:01 51°15.597 2°53.677 7.579668 3.513271 34.024276 20.826477
2004-03-22 09:33:05 51°15.61 2°53.666 7.567154 3.511375 34.025228 19.781486
2004-03-22 09:33:11 51°15.629 2°53.649 7.562137 3.510427 34.028174 18.197144
2004-03-22 09:33:16 51°15.645 2°53.634 7.563014 3.508952 34.02956 19.882614
2004-03-22 09:33:21 51°15.66 2°53.62 7.555367 3.508636 34.040977 18.500529
2004-03-22 09:33:25 51°15.673 2°53.609 7.554296 3.507583 34.036206 18.534238
2004-03-22 09:33:31 51°15.692 2°53.592 7.554296 3.507583 34.036206 18.534238
2004-03-22 09:33:35 51°15.705 2°53.581 7.559264 3.505581 34.025325 19.478101
2004-03-22 09:33:41 51°15.724 2°53.564 7.553224 3.506529 34.038851 18.298272
2004-03-22 09:33:45 51°15.736 2°53.553 7.55678 3.503369 34.009694 18.298272
2004-03-22 09:33:51 51°15.755 2°53.537 7.562771 3.506003 34.043886 19.039879
2004-03-22 09:33:56 51°15.771 2°53.523 7.569783 3.505476 34.038201 18.331982
2004-03-22 09:34:01 51°15.786 2°53.509 7.569783 3.505476 34.038201 18.331982
2004-03-22 09:34:05 51°15.799 2°53.497 7.582492 3.505055 34.034478 18.669076
2004-03-22 09:34:11 51°15.817 2°53.48 7.594469 3.505371 34.036239 17.185862
2004-03-22 09:34:16 51°15.833 2°53.466 7.605713 3.505371 34.033766 17.927469
2004-03-22 09:34:21 51°15.849 2°53.451 7.617879 3.505897 34.032031 17.017315
2004-03-22 09:34:25 51°15.861 2°53.44 7.628535 3.506003 34.026575 17.758922
2004-03-22 09:34:31 51°15.88 2°53.423 7.628535 3.506003 34.026575 17.758922
2004-03-22 09:34:36 51°15.896 2°53.41 7.641087 3.506635 34.024332 17.792631
2004-03-22 09:34:41 51°15.912 2°53.395 7.64955 3.506634 34.013628 19.039879
2004-03-22 09:34:45 51°15.924 2°53.385 7.659666 3.507793 34.015423 18.298272
2004-03-22 09:34:51 51°15.942 2°53.368 7.668321 3.508425 34.011541 17.522956
2004-03-22 09:34:55 51°15.955 2°53.357 7.670218 3.508952 34.006527 18.163435
2004-03-22 09:35:01 51°15.974 2°53.341 7.670218 3.508952 34.006527 18.163435
2004-03-22 09:35:05 51°15.986 2°53.33 7.672552 3.509689 34.003785 18.264563
2004-03-22 09:35:11 51°16.005 2°53.313 7.671774 3.510321 34.000733 18.871332
2004-03-22 09:35:16 51°16.021 2°53.3 7.671725 3.509478 33.985091 18.669076
2004-03-22 09:35:21 51°16.037 2°53.287 7.669926 3.510848 33.994087 17.893759
2004-03-22 09:35:25 51°16.049 2°53.277 7.666328 3.511269 33.995339 19.714067
2004-03-22 09:35:31 51°16.069 2°53.261 7.666328 3.511269 33.995339 19.714067
2004-03-22 09:35:35 51°16.082 2°53.251 7.665453 3.512007 34.001634 18.938751
2004-03-22 09:35:41 51°16.101 2°53.237 7.659423 3.511691 33.999053 19.107298
2004-03-22 09:35:46 51°16.117 2°53.224 7.658304 3.512112 34.00523 17.792631
2004-03-22 09:35:51 51°16.133 2°53.212 7.651058 3.512323 34.008319 18.197144
2004-03-22 09:35:56 51°16.149 2°53.2 7.642838 3.512007 34.008202 17.961178
2004-03-22 09:36:01 51°16.164 2°53.188 7.642838 3.512007 34.008202 17.961178
2004-03-22 09:36:05 51°16.177 2°53.178 7.637146 3.511901 34.006247 18.028597
2004-03-22 09:36:11 51°16.197 2°53.163 7.634325 3.512007 34.012309 17.725212
2004-03-22 09:36:16 51°16.212 2°53.151 7.628243 3.511059 34.006209 19.511811
2004-03-22 09:36:21 51°16.228 2°53.139 7.622745 3.512323 34.025573 18.365691
2004-03-22 09:36:25 51°16.241 2°53.129 7.616614 3.51127 34.019982 17.590375
2004-03-22 09:36:31 51°16.261 2°53.115 7.616614 3.51127 34.019982 17.590375
2004-03-22 09:36:35 51°16.274 2°53.106 7.60985 3.510954 34.021511 17.28699
2004-03-22 09:36:41 51°16.293 2°53.091 7.606151 3.511059 34.02758 18.264563
2004-03-22 09:36:45 51°16.306 2°53.081 7.602598 3.510427 34.028174 16.781349
2004-03-22 09:36:51 51°16.326 2°53.066 7.60177 3.510111 34.030528 17.826341
2004-03-22 09:36:55 51°16.338 2°53.057 7.592181 3.5099 34.033195 16.444255
2004-03-22 09:37:01 51°16.358 2°53.042 7.592181 3.5099 34.033195 16.444255
2004-03-22 09:37:05 51°16.371 2°53.033 7.590574 3.509584 34.032258 17.826341
2004-03-22 09:37:11 51°16.39 2°53.02 7.585949 3.509268 34.032967 16.882477
2004-03-22 09:37:16 51°16.406 2°53.008 7.582687 3.508847 34.032541 17.051024
2004-03-22 09:37:21 51°16.422 2°52.996 7.577039 3.508636 34.034387 18.3994
2004-03-22 09:37:25 51°16.435 2°52.986 7.572803 3.508636 34.038505 17.522956
2004-03-22 09:37:31 51°16.454 2°52.972 7.572803 3.508636 34.038505 17.522956
2004-03-22 09:37:35 51°16.467 2°52.962 7.568712 3.508742 34.037994 16.140871
2004-03-22 09:37:41 51°16.486 2°52.948 7.565108 3.508742 34.048706 17.556665
2004-03-22 09:37:45 51°16.499 2°52.939 7.561407 3.507688 34.040638 18.298272
2004-03-22 09:37:51 51°16.518 2°52.925 7.55829 3.507267 34.040213 18.197144
2004-03-22 09:37:56 51°16.535 2°52.913 7.555757 3.50674 34.037827 17.624084
2004-03-22 09:38:01 51°16.55 2°52.902 7.555757 3.50674 34.037827 17.624084
2004-03-22 09:38:05 51°16.563 2°52.893 7.553224 3.507056 34.046184 18.331982
2004-03-22 09:38:11 51°16.582 2°52.879 7.548207 3.506635 34.044935 17.826341
2004-03-22 09:38:16 51°16.598 2°52.868 7.544261 3.505792 34.038314 18.3994
2004-03-22 09:38:21 51°16.614 2°52.856 7.53856 3.506213 34.046161 18.871332
2004-03-22 09:38:25 51°16.626 2°52.847 7.536709 3.504844 34.035502 16.781349
2004-03-22 09:38:31 51°16.645 2°52.833 7.536709 3.504844 34.035502 16.781349
2004-03-22 09:38:36 51°16.661 2°52.821 7.535686 3.505792 34.046562 18.028597
2004-03-22 09:38:41 51°16.676 2°52.809 7.5294 3.505265 34.047476 17.354409
2004-03-22 09:38:45 51°16.689 2°52.8 7.527012 3.505265 34.051602 18.635366
2004-03-22 09:38:51 51°16.708 2°52.786 7.520677 3.505055 34.050978 19.410683
2004-03-22 09:38:55 51°16.72 2°52.776 7.517948 3.504949 34.052316 18.129725
2004-03-22 09:39:01 51°16.739 2°52.762 7.517948 3.504949 34.052316 18.129725
2004-03-22 09:39:05 51°16.752 2°52.752 7.513853 3.504423 34.051581 18.871332
2004-03-22 09:39:11 51°16.77 2°52.738 7.510685 3.504317 34.054572 19.410683
2004-03-22 09:39:16 51°16.786 2°52.726 7.512245 3.504001 34.056113 18.770204
2004-03-22 09:39:21 51°16.802 2°52.714 7.50508 3.503896 34.057453 18.3994
2004-03-22 09:39:26 51°16.817 2°52.702 7.504007 3.50358 34.058169 18.500529
2004-03-22 09:39:31 51°16.833 2°52.69 7.504007 3.50358 34.058169 18.500529
2004-03-22 09:39:36 51°16.849 2°52.678 7.500741 3.503369 34.059198 18.669076
2004-03-22 09:39:41 51°16.864 2°52.666 7.499863 3.503159 34.0594 19.478101
2004-03-22 09:39:45 51°16.877 2°52.656 7.497036 3.502843 34.058463 18.97246
2004-03-22 09:39:51 51°16.895 2°52.642 7.498498 3.502737 34.060631 18.298272
2004-03-22 09:39:56 51°16.911 2°52.629 7.496207 3.502316 34.058556 19.478101
2004-03-22 09:40:01 51°16.927 2°52.617 7.496207 3.502316 34.058556 19.478101
2004-03-22 09:40:05 51°16.939 2°52.607 7.487869 3.502632 34.064452 19.00617
2004-03-22 09:40:11 51°16.959 2°52.592 7.488503 3.502211 34.059897 20.69164
2004-03-22 09:40:15 51°16.971 2°52.583 7.485139 3.502421 34.065482 20.051161
2004-03-22 09:40:21 51°16.991 2°52.568 7.486114 3.502211 34.064031 21.129862
2004-03-22 09:40:25 51°17.003 2°52.559 7.485383 3.502421 34.06879 19.781486
2004-03-22 09:40:31 51°17.022 2°52.545 7.485383 3.502421 34.06879 19.781486
2004-03-22 09:40:36 51°17.038 2°52.535 7.485334 3.501895 34.068057 20.489383
2004-03-22 09:40:41 51°17.054 2°52.523 7.482798 3.501684 34.066606 20.893896
2004-03-22 09:40:45 51°17.066 2°52.514 7.479921 3.501895 34.069712 19.54552
2004-03-22 09:40:51 51°17.085 2°52.499 7.477531 3.501895 34.069712 20.152289
2004-03-22 09:40:55 51°17.098 2°52.489 7.476654 3.501579 34.067121 20.051161
2004-03-22 09:41:01 51°17.116 2°52.474 7.476654 3.501579 34.067121 20.051161
2004-03-22 09:41:05 51°17.129 2°52.464 7.47836 3.501368 34.066497 20.792768
2004-03-22 09:41:11 51°17.148 2°52.449 7.473776 3.501684 34.074053 18.770204
2004-03-22 09:41:16 51°17.163 2°52.437 7.474069 3.501263 34.070322 19.57923
2004-03-22 09:41:21 51°17.179 2°52.425 7.475532 3.501157 34.07001 19.983742
2004-03-22 09:41:25 51°17.192 2°52.416 7.472362 3.501157 34.070838 20.084871
2004-03-22 09:41:31 51°17.211 2°52.402 7.472362 3.501157 34.070838 20.084871
2004-03-22 09:41:35 51°17.223 2°52.393 7.472362 3.500841 34.069902 20.455674
2004-03-22 09:41:41 51°17.242 2°52.379 7.471386 3.501263 34.07446 18.938751
2004-03-22 09:41:45 51°17.254 2°52.369 7.468362 3.501368 34.0756 20.11858
2004-03-22 09:41:51 51°17.273 2°52.354 7.469777 3.501157 34.075804 21.80405
2004-03-22 09:41:56 51°17.289 2°52.341 7.467143 3.501368 34.077256 19.54552
2004-03-22 09:42:01 51°17.304 2°52.327 7.467143 3.501368 34.077256 19.54552
2004-03-22 09:42:06 51°17.319 2°52.312 7.466948 3.501473 34.078395 19.410683
2004-03-22 09:42:11 51°17.333 2°52.298 7.467777 3.501263 34.079427 20.354546
2004-03-22 09:42:16 51°17.347 2°52.282 7.466167 3.500841 34.075696 19.54552
2004-03-22 09:42:21 51°17.362 2°52.266 7.46646 3.501368 34.083051 18.736494
2004-03-22 09:42:25 51°17.374 2°52.254 7.466119 3.500947 34.080148 19.107298
2004-03-22 09:42:31 51°17.391 2°52.235 7.466119 3.500947 34.080148 19.107298
2004-03-22 09:42:35 51°17.403 2°52.222 7.464265 3.500947 34.080148 18.43311
2004-03-22 09:42:41 51°17.42 2°52.204 7.463289 3.501157 34.082428 18.871332
2004-03-22 09:42:46 51°17.435 2°52.188 7.461826 3.501052 34.081288 19.848905
2004-03-22 09:42:51 51°17.449 2°52.172 7.464216 3.501368 34.086364 19.00617
2004-03-22 09:42:56 51°17.463 2°52.156 7.46485 3.501263 34.084396 19.680358
2004-03-22 09:43:01 51°17.478 2°52.14 7.46485 3.501263 34.084396 19.680358
2004-03-22 09:43:05 51°17.489 2°52.127 7.464119 3.500736 34.078696 19.612939
2004-03-22 09:43:11 51°17.505 2°52.105 7.461241 3.501052 34.083773 20.219708
2004-03-22 09:43:16 51°17.519 2°52.088 7.460411 3.500525 34.078901 19.680358
2004-03-22 09:43:21 51°17.533 2°52.07 7.460753 3.500947 34.083461 19.478101
2004-03-22 09:43:25 51°17.544 2°52.056 7.462753 3.500841 34.083149 20.759059
2004-03-22 09:43:31 51°17.561 2°52.035 7.462753 3.500841 34.083149 20.759059
2004-03-22 09:43:35 51°17.572 2°52.022 7.46168 3.500947 34.085946 18.298272
2004-03-22 09:43:41 51°17.588 2°52.001 7.462314 3.500947 34.085946 19.747777
2004-03-22 09:43:45 51°17.599 2°51.987 7.461728 3.500736 34.083666 19.747777
2004-03-22 09:43:51 51°17.615 2°51.965 7.462899 3.500841 34.083977 20.017452
2004-03-22 09:43:56 51°17.629 2°51.948 7.46568 3.500631 34.082526 19.511811
2004-03-22 09:44:01 51°17.643 2°51.93 7.46568 3.500631 34.082526 19.511811
2004-03-22 09:44:05 51°17.654 2°51.916 7.462704 3.500736 34.082837 19.376973
2004-03-22 09:44:11 51°17.671 2°51.896 7.463289 3.499788 34.072577 18.567947
2004-03-22 09:44:16 51°17.685 2°51.878 7.46368 3.500315 34.078277 18.770204
2004-03-22 09:44:21 51°17.699 2°51.86 7.465533 3.499893 34.074545 19.343264
2004-03-22 09:44:25 51°17.71 2°51.846 7.464899 3.500209 34.076309 17.994888
2004-03-22 09:44:31 51°17.726 2°51.825 7.464899 3.500209 34.076309 17.994888
2004-03-22 09:44:35 51°17.738 2°51.812 7.46568 3.501263 34.090195 18.500529
2004-03-22 09:44:41 51°17.754 2°51.792 7.468509 3.500525 34.079729 17.489247
2004-03-22 09:44:45 51°17.766 2°51.778 7.468801 3.50042 34.076933 17.253281
2004-03-22 09:44:51 51°17.782 2°51.758 7.471533 3.500525 34.077245 19.039879
2004-03-22 09:44:56 51°17.796 2°51.741 7.472508 3.500736 34.079524 18.635366
2004-03-22 09:45:01 51°17.81 2°51.724 7.472508 3.500736 34.079524 18.635366
2004-03-22 09:45:05 51°17.821 2°51.71 7.474361 3.50042 34.073621 17.388118
2004-03-22 09:45:11 51°17.838 2°51.689 7.476751 3.500209 34.070513 18.466819
2004-03-22 09:45:15 51°17.849 2°51.676 7.480311 3.500841 34.076524 18.871332
2004-03-22 09:45:21 51°17.865 2°51.654 7.480555 3.500841 34.074868 18.905042
2004-03-22 09:45:25 51°17.875 2°51.639 7.481677 3.501157 34.07746 17.590375
2004-03-22 09:45:31 51°17.891 2°51.615 7.481677 3.501157 34.07746 17.590375
2004-03-22 09:45:36 51°17.903 2°51.594 7.482067 3.501052 34.073837 18.062306
2004-03-22 09:45:41 51°17.915 2°51.573 7.483578 3.501263 34.07446 18.837623
2004-03-22 09:45:45 51°17.925 2°51.557 7.483871 3.501579 34.077051 17.657794
2004-03-22 09:45:51 51°17.939 2°51.531 7.483237 3.501789 34.077675 17.826341
2004-03-22 09:45:55 51°17.949 2°51.515 7.480896 3.502 34.077471 19.376973
2004-03-22 09:46:01 51°17.963 2°51.489 7.480896 3.502 34.077471 19.376973
2004-03-22 09:46:06 51°17.975 2°51.467 7.482067 3.502 34.079126 18.264563
2004-03-22 09:46:11 51°17.988 2°51.447 7.48114 3.501895 34.074676 17.994888
2004-03-22 09:46:16 51°17.999 2°51.425 7.482262 3.502738 34.083792 16.343127
2004-03-22 09:46:21 51°18.012 2°51.404 7.478507 3.502422 34.082029 17.489247
2004-03-22 09:46:25 51°18.022 2°51.386 7.477531 3.502527 34.083168 16.680221
2004-03-22 09:46:31 51°18.036 2°51.36 7.477531 3.502527 34.083168 16.680221
2004-03-22 09:46:35 51°18.046 2°51.343 7.476507 3.503054 34.088038 17.084734
2004-03-22 09:46:41 51°18.061 2°51.318 7.475971 3.502422 34.082857 17.388118
2004-03-22 09:46:46 51°18.073 2°51.296 7.472215 3.503159 34.09249 17.455537
2004-03-22 09:46:51 51°18.085 2°51.275 7.46963 3.503159 34.09249 17.556665
2004-03-22 09:46:55 51°18.095 2°51.258 7.463972 3.503159 34.093318 17.219571
2004-03-22 09:47:01 51°18.11 2°51.233 7.463972 3.503159 34.093318 17.219571
2004-03-22 09:47:05 51°18.119 2°51.215 7.460558 3.503054 34.093006 17.455537
2004-03-22 09:47:11 51°18.134 2°51.19 7.459924 3.503686 34.101501 17.893759
2004-03-22 09:47:15 51°18.144 2°51.173 7.458216 3.503581 34.104504 16.006033
2004-03-22 09:47:21 51°18.158 2°51.147 7.449679 3.504002 34.11155 18.534238
2004-03-22 09:47:25 51°18.168 2°51.13 7.445434 3.504002 34.115694 18.871332
2004-03-22 09:47:31 51°18.183 2°51.104 7.445434 3.504002 34.115694 18.871332
2004-03-22 09:47:36 51°18.195 2°51.083 7.442799 3.504213 34.120462 16.882477
2004-03-22 09:47:40 51°18.204 2°51.066 7.436602 3.504002 34.121499 16.612802
2004-03-22 09:47:45 51°18.216 2°51.044 7.43465 3.504424 34.130208 17.927469
2004-03-22 09:47:51 51°18.23 2°51.017 7.431819 3.50474 34.136119 17.3207
2004-03-22 09:47:55 51°18.24 2°51 7.428647 3.504529 34.138817 16.848768
2004-03-22 09:48:01 51°18.255 2°50.973 7.428647 3.504529 34.138817 16.848768
2004-03-22 09:48:06 51°18.266 2°50.951 7.422497 3.504845 34.148052 17.961178
2004-03-22 09:48:11 51°18.278 2°50.929 7.424254 3.504845 34.151374 17.084734
2004-03-22 09:48:15 51°18.288 2°50.911 7.419227 3.504318 34.149821 17.388118
2004-03-22 09:48:21 51°18.303 2°50.884 7.414247 3.504424 34.152624 16.309418
2004-03-22 09:48:25 51°18.312 2°50.866 7.420056 3.504635 34.15823 16.17458
2004-03-22 09:48:31 51°18.327 2°50.84 7.420056 3.504635 34.15823 16.17458
2004-03-22 09:48:36 51°18.339 2°50.818 7.409659 3.504529 34.158751 16.680221
2004-03-22 09:48:41 51°18.351 2°50.795 7.408243 3.504529 34.161244 16.949896
2004-03-22 09:48:45 51°18.36 2°50.778 7.404532 3.504951 34.169136 16.781349
2004-03-22 09:48:51 51°18.375 2°50.751 7.399796 3.504108 34.162497 15.534101
2004-03-22 09:48:56 51°18.387 2°50.728 7.397696 3.504635 34.171532 17.657794
2004-03-22 09:49:01 51°18.399 2°50.706 7.397696 3.504635 34.171532 17.657794
2004-03-22 09:49:06 51°18.411 2°50.683 7.391006 3.504635 34.174859 18.669076
2004-03-22 09:49:11 51°18.423 2°50.661 7.392325 3.504213 34.173619 17.691503
2004-03-22 09:49:16 51°18.435 2°50.64 7.391641 3.504635 34.182348 17.792631
2004-03-22 09:49:20 51°18.444 2°50.624 7.385293 3.504003 34.180488 17.792631
2004-03-22 09:49:26 51°18.458 2°50.599 7.380213 3.504214 34.18527 17.657794
2004-03-22 09:49:31 51°18.47 2°50.577 7.380213 3.504214 34.18527 17.657794
2004-03-22 09:49:36 51°18.481 2°50.556 7.383681 3.503897 34.183508 18.197144
2004-03-22 09:49:41 51°18.493 2°50.534 7.375915 3.504003 34.185483 17.624084
2004-03-22 09:49:45 51°18.502 2°50.517 7.374791 3.504846 34.198788 16.275708
2004-03-22 09:49:51 51°18.516 2°50.491 7.374645 3.504003 34.191313 17.354409
2004-03-22 09:49:56 51°18.528 2°50.47 7.377722 3.503687 34.192049 18.803913
2004-03-22 09:50:01 51°18.54 2°50.448 7.377722 3.503687 34.192049 18.803913
2004-03-22 09:50:05 51°18.55 2°50.431 7.376061 3.503582 34.192572 18.500529
2004-03-22 09:50:11 51°18.564 2°50.405 7.376794 3.503476 34.195595 18.3994
2004-03-22 09:50:15 51°18.574 2°50.388 7.37909 3.503371 34.194452 18.97246
2004-03-22 09:50:21 51°18.588 2°50.361 7.379139 3.502739 34.187594 17.893759
2004-03-22 09:50:25 51°18.598 2°50.344 7.380653 3.502949 34.18988 19.478101
2004-03-22 09:50:31 51°18.612 2°50.317 7.380653 3.502949 34.18988 19.478101
2004-03-22 09:50:35 51°18.621 2°50.299 7.380946 3.502949 34.18988 19.208426
2004-03-22 09:50:41 51°18.635 2°50.273 7.379041 3.502739 34.188428 18.871332
2004-03-22 09:50:45 51°18.644 2°50.255 7.379334 3.502739 34.185095 19.00617
2004-03-22 09:50:51 51°18.657 2°50.227 7.382216 3.502739 34.185928 19.747777
2004-03-22 09:50:56 51°18.669 2°50.204 7.381923 3.502633 34.183953 19.073589
2004-03-22 09:51:01 51°18.68 2°50.18 7.381923 3.502633 34.183953 19.073589
2004-03-22 09:51:05 51°18.689 2°50.161 7.383241 3.502528 34.18281 19.815195
2004-03-22 09:51:11 51°18.702 2°50.133 7.381776 3.502423 34.1825 19.174717
2004-03-22 09:51:15 51°18.711 2°50.114 7.384316 3.502212 34.178548 19.00617
2004-03-22 09:51:21 51°18.725 2°50.085 7.384804 3.502317 34.178858 19.680358
2004-03-22 09:51:26 51°18.736 2°50.062 7.386172 3.502212 34.176883 20.489383
2004-03-22 09:51:31 51°18.748 2°50.038 7.386172 3.502212 34.176883 20.489383
2004-03-22 09:51:35 51°18.757 2°50.019 7.387735 3.502317 34.178026 18.770204
2004-03-22 09:51:41 51°18.771 2°49.991 7.387881 3.502107 34.17574 19.107298
2004-03-22 09:51:45 51°18.78 2°49.972 7.387344 3.502212 34.175217 18.770204
2004-03-22 09:51:51 51°18.794 2°49.944 7.385928 3.502107 34.17241 17.556665
2004-03-22 09:51:56 51°18.805 2°49.921 7.386904 3.502001 34.170435 18.905042
2004-03-22 09:52:01 51°18.816 2°49.898 7.386904 3.502001 34.170435 18.905042
2004-03-22 09:52:05 51°18.826 2°49.88 7.382216 3.501896 34.16846 17.28699
2004-03-22 09:52:11 51°18.84 2°49.852 7.380506 3.502317 34.172198 17.3207
2004-03-22 09:52:15 51°18.849 2°49.834 7.378797 3.502001 34.16877 17.590375
2004-03-22 09:52:21 51°18.863 2°49.806 7.375329 3.50179 34.167317 17.421828
2004-03-22 09:52:25 51°18.872 2°49.788 7.373424 3.50179 34.168982 17.758922
2004-03-22 09:52:31 51°18.886 2°49.76 7.373424 3.50179 34.168982 17.758922
2004-03-22 09:52:35 51°18.895 2°49.742 7.367855 3.501896 34.173454 17.28699
2004-03-22 09:52:41 51°18.909 2°49.714 7.367659 3.501896 34.17512 17.927469
2004-03-22 09:52:45 51°18.919 2°49.696 7.364484 3.501791 34.175642 18.230853
2004-03-22 09:52:51 51°18.933 2°49.669 7.361748 3.501791 34.178141 17.388118
2004-03-22 09:52:55 51°18.942 2°49.651 7.362725 3.502212 34.186045 17.3207
2004-03-22 09:53:00 51°18.954 2°49.628 7.362725 3.502212 34.186045 17.3207
2004-03-22 09:53:06 51°18.968 2°49.6 7.3638 3.501896 34.185948 17.051024
2004-03-22 09:53:11 51°18.979 2°49.577 7.362969 3.502212 34.191878 16.949896
2004-03-22 09:53:15 51°18.989 2°49.558 7.368294 3.502317 34.195522 17.994888
2004-03-22 09:53:21 51°19.003 2°49.53 7.372496 3.50295 34.203216 17.86005
2004-03-22 09:53:26 51°19.014 2°49.506 7.373961 3.502107 34.194069 18.096016
2004-03-22 09:53:31 51°19.026 2°49.483 7.373961 3.502107 34.194069 18.096016
2004-03-22 09:53:36 51°19.038 2°49.46 7.377673 3.501896 34.190115 17.691503
2004-03-22 09:53:41 51°19.05 2°49.436 7.379969 3.501896 34.188448 18.3994
2004-03-22 09:53:45 51°19.059 2°49.418 7.38202 3.501685 34.183662 17.388118
2004-03-22 09:53:51 51°19.073 2°49.39 7.383486 3.502001 34.183759 16.74764
2004-03-22 09:53:55 51°19.082 2°49.371 7.385781 3.502001 34.18126 16.882477
2004-03-22 09:54:00 51°19.093 2°49.346 7.385781 3.502001 34.18126 16.882477
2004-03-22 09:54:05 51°19.104 2°49.321 7.387881 3.502212 34.183546 17.522956
2004-03-22 09:54:11 51°19.117 2°49.291 7.386904 3.502423 34.181667 17.3207
2004-03-22 09:54:15 51°19.126 2°49.271 7.387246 3.502739 34.184262 18.635366
2004-03-22 09:54:21 51°19.139 2°49.241 7.387148 3.502423 34.17667 17.152153
2004-03-22 09:54:25 51°19.148 2°49.222 7.385097 3.502423 34.174173 18.264563
2004-03-22 09:54:31 51°19.16 2°49.192 7.385097 3.502423 34.174173 18.264563
2004-03-22 09:54:35 51°19.169 2°49.172 7.384804 3.502001 34.171267 17.455537
2004-03-22 09:54:41 51°19.181 2°49.143 7.384218 3.503055 34.182694 17.893759
2004-03-22 09:54:45 51°19.19 2°49.123 7.382753 3.50316 34.182171 17.826341
2004-03-22 09:54:51 51°19.202 2°49.094 7.37909 3.503055 34.182694 17.455537
2004-03-22 09:54:56 51°19.213 2°49.07 7.375719 3.50316 34.183004 18.230853
2004-03-22 09:55:01 51°19.223 2°49.046 7.375719 3.50316 34.183004 18.230853
2004-03-22 09:55:05 51°19.231 2°49.027 7.373961 3.50316 34.185502 17.489247
2004-03-22 09:55:11 51°19.244 2°48.998 7.3723 3.503265 34.188311 15.02846
2004-03-22 09:55:16 51°19.254 2°48.973 7.370297 3.503582 34.193406 16.882477
2004-03-22 09:55:21 51°19.265 2°48.948 7.367317 3.503792 34.196525 15.871195
2004-03-22 09:55:25 51°19.273 2°48.929 7.363165 3.503687 34.197881 16.107161
2004-03-22 09:55:31 51°19.285 2°48.9 7.363165 3.503687 34.197881 16.107161
2004-03-22 09:55:36 51°19.296 2°48.876 7.361259 3.503582 34.198405 16.107161
2004-03-22 09:55:41 51°19.306 2°48.852 7.357937 3.501158 34.177113 15.702648
2004-03-22 09:55:45 51°19.315 2°48.833 7.353979 3.505689 34.227941 15.298136
2004-03-22 09:55:51 51°19.327 2°48.804 7.351536 3.504109 34.213292 16.17458
2004-03-22 09:55:56 51°19.338 2°48.779 7.350119 3.50453 34.2187 14.792494
2004-03-22 09:56:01 51°19.348 2°48.754 7.350119 3.50453 34.2187 14.792494
2004-03-22 09:56:05 51°19.356 2°48.734 7.345721 3.504319 34.21975 15.197007
2004-03-22 09:56:11 51°19.368 2°48.705 7.343033 3.504425 34.2259 16.444255
2004-03-22 09:56:16 51°19.379 2°48.68 7.340443 3.504741 34.231835 15.129589
2004-03-22 09:56:21 51°19.39 2°48.655 7.339074 3.504214 34.227785 15.567811
2004-03-22 09:56:26 51°19.4 2°48.63 7.337901 3.504952 34.239968 15.432973
2004-03-22 09:56:31 51°19.41 2°48.606 7.337901 3.504952 34.239968 15.432973
2004-03-22 09:56:36 51°19.42 2°48.581 7.331205 3.505268 34.245906 15.60152
2004-03-22 09:56:41 51°19.431 2°48.556 7.329739 3.504952 34.244979 13.410409
2004-03-22 09:56:45 51°19.439 2°48.536 7.32749 3.505478 34.253207 15.466683
2004-03-22 09:56:51 51°19.451 2°48.506 7.327539 3.5059 34.257785 15.365554
2004-03-22 09:56:55 51°19.459 2°48.486 7.329103 3.506427 34.265179 13.612665
2004-03-22 09:57:01 51°19.472 2°48.456 7.329103 3.506427 34.265179 13.612665
2004-03-22 09:57:05 51°19.48 2°48.437 7.325144 3.506321 34.269051 15.736358
2004-03-22 09:57:11 51°19.492 2°48.407 7.323824 3.506427 34.272704 15.365554
2004-03-22 09:57:15 51°19.5 2°48.387 7.320793 3.506532 34.275522 13.983469
2004-03-22 09:57:21 51°19.51 2°48.356 7.317273 3.507059 34.281246 14.387982
2004-03-22 09:57:27 51°19.52 2°48.324 7.315708 3.50748 34.287499 13.444118
2004-03-22 09:57:31 51°19.527 2°48.303 7.315708 3.50748 34.287499 13.444118
2004-03-22 09:57:35 51°19.533 2°48.281 7.314682 3.508007 34.295734 14.691366
2004-03-22 09:57:40 51°19.541 2°48.253 7.314388 3.508218 34.300536 15.06217
2004-03-22 09:57:45 51°19.549 2°48.225 7.309792 3.508534 34.305646 15.095879
2004-03-22 09:57:51 51°19.558 2°48.191 7.311552 3.508955 34.31274 14.017178
2004-03-22 09:57:55 51°19.564 2°48.167 7.314926 3.508955 34.315253 14.859913
2004-03-22 09:58:01 51°19.573 2°48.134 7.314926 3.508955 34.315253 14.859913
2004-03-22 09:58:05 51°19.578 2°48.111 7.315219 3.508745 34.314638 14.691366
2004-03-22 09:58:11 51°19.587 2°48.077 7.312188 3.509061 34.31975 15.230717
2004-03-22 09:58:15 51°19.592 2°48.053 7.313606 3.50885 34.316621 14.286853
2004-03-22 09:58:21 51°19.6 2°48.018 7.315562 3.508534 34.313185 15.365554
2004-03-22 09:58:26 51°19.606 2°47.988 7.315708 3.508639 34.312655 16.208289
2004-03-22 09:58:31 51°19.611 2°47.958 7.315708 3.508639 34.312655 16.208289
2004-03-22 09:58:36 51°19.617 2°47.928 7.318544 3.508745 34.315476 16.74764
2004-03-22 09:58:40 51°19.621 2°47.904 7.318593 3.50885 34.316621 15.466683
2004-03-22 09:58:45 51°19.626 2°47.874 7.318691 3.508639 34.313492 14.623947
2004-03-22 09:58:51 51°19.63 2°47.837 7.320353 3.508218 34.307236 15.331845
2004-03-22 09:58:55 51°19.633 2°47.812 7.319962 3.508323 34.307543 16.309418
2004-03-22 09:59:00 51°19.637 2°47.782 7.319962 3.508323 34.307543 16.309418
2004-03-22 09:59:05 51°19.64 2°47.75 7.32182 3.508534 34.308996 15.331845
2004-03-22 09:59:11 51°19.643 2°47.713 7.320695 3.508534 34.308158 16.477965
2004-03-22 09:59:16 51°19.645 2°47.681 7.324215 3.508429 34.305338 15.500392
2004-03-22 09:59:21 51°19.648 2°47.65 7.321966 3.508323 34.304193 15.904905
2004-03-22 09:59:25 51°19.651 2°47.625 7.323824 3.508218 34.303048 16.444255
2004-03-22 09:59:31 51°19.655 2°47.587 7.323824 3.508218 34.303048 16.444255
2004-03-22 09:59:35 51°19.658 2°47.562 7.320011 3.508218 34.301373 16.140871
2004-03-22 09:59:41 51°19.662 2°47.525 7.31918 3.508218 34.299699 16.039742
2004-03-22 09:59:45 51°19.666 2°47.501 7.315562 3.508218 34.299699 16.680221
2004-03-22 09:59:51 51°19.67 2°47.463 7.314242 3.507902 34.295426 14.994751
2004-03-22 09:59:56 51°19.675 2°47.433 7.310134 3.507902 34.297101 16.511674
2004-03-22 10:00:01 51°19.679 2°47.402 7.310134 3.507902 34.297101 16.511674
2004-03-22 10:00:05 51°19.683 2°47.378 7.308521 3.507902 34.298775 15.500392
2004-03-22 10:00:11 51°19.688 2°47.34 7.305 3.50748 34.295869 16.511674
2004-03-22 10:00:16 51°19.692 2°47.31 7.302702 3.507375 34.297236 16.275708
2004-03-22 10:00:21 51°19.696 2°47.278 7.300501 3.507164 34.29662 17.253281
2004-03-22 10:00:25 51°19.7 2°47.254 7.299034 3.506954 34.296842 16.208289
2004-03-22 10:00:31 51°19.705 2°47.217 7.299034 3.506954 34.296842 16.208289
2004-03-22 10:00:35 51°19.708 2°47.192 7.292578 3.506743 34.297901 17.354409
2004-03-22 10:00:41 51°19.713 2°47.155 7.2916 3.506638 34.300944 16.140871
2004-03-22 10:00:45 51°19.716 2°47.13 7.286122 3.506743 34.303765 16.039742
2004-03-22 10:00:51 51°19.721 2°47.094 7.285584 3.5059 34.297951 16.309418
2004-03-22 10:00:56 51°19.725 2°47.063 7.281719 3.506638 34.307648 16.612802
2004-03-22 10:01:01 51°19.73 2°47.033 7.281719 3.506638 34.307648 16.612802
2004-03-22 10:01:05 51°19.733 2°47.008 7.276827 3.506849 34.314131 15.904905
2004-03-22 10:01:11 51°19.739 2°46.971 7.268559 3.506849 34.317484 16.073452
2004-03-22 10:01:15 51°19.742 2°46.947 7.265232 3.506743 34.318854 15.129589
2004-03-22 10:01:21 51°19.748 2°46.91 7.263617 3.506743 34.322209 15.264426
2004-03-22 10:01:26 51°19.752 2°46.88 7.262198 3.506954 34.327858 15.129589
2004-03-22 10:01:31 51°19.757 2°46.849 7.262198 3.506954 34.327858 15.129589
2004-03-22 10:01:36 51°19.762 2°46.819 7.258283 3.506849 34.330907 15.197007
2004-03-22 10:01:41 51°19.767 2°46.788 7.264204 3.50706 34.339076 14.152016
2004-03-22 10:01:46 51°19.772 2°46.758 7.258039 3.506954 34.341288 16.107161
2004-03-22 10:01:51 51°19.776 2°46.728 7.263324 3.506954 34.342968 15.331845
2004-03-22 10:01:56 51°19.78 2°46.697 7.264938 3.506744 34.342354 14.387982
2004-03-22 10:02:01 51°19.784 2°46.666 7.264938 3.506744 34.342354 14.387982
2004-03-22 10:02:06 51°19.788 2°46.635 7.268902 3.506427 34.339753 14.185725
2004-03-22 10:02:11 51°19.792 2°46.605 7.27081 3.506217 34.338298 14.421691
2004-03-22 10:02:15 51°19.795 2°46.58 7.276338 3.505795 34.332031 14.253144
2004-03-22 10:02:21 51°19.8 2°46.544 7.281132 3.505374 34.326604 14.556529
2004-03-22 10:02:25 51°19.803 2°46.519 7.283823 3.505269 34.322939 13.91605
2004-03-22 10:02:31 51°19.808 2°46.483 7.283823 3.505269 34.322939 13.91605
2004-03-22 10:02:36 51°19.813 2°46.453 7.286856 3.505058 34.318128 15.163298
2004-03-22 10:02:41 51°19.816 2°46.422 7.288861 3.505374 34.318212 16.17458
2004-03-22 10:02:45 51°19.82 2°46.398 7.294486 3.51022 34.366759 15.837486
2004-03-22 10:02:51 51°19.825 2°46.361 7.296149 3.505584 34.313794 14.826204
2004-03-22 10:02:56 51°19.83 2°46.331 7.299621 3.504636 34.300961 16.107161
2004-03-22 10:03:01 51°19.833 2°46.301 7.299621 3.504636 34.300961 16.107161
2004-03-22 10:03:05 51°19.837 2°46.276 7.302751 3.504531 34.292272 15.095879
2004-03-22 10:03:11 51°19.842 2°46.239 7.305098 3.504425 34.28945 16.579093
2004-03-22 10:03:16 51°19.846 2°46.209 7.310868 3.503793 34.280062 16.039742
2004-03-22 10:03:21 51°19.851 2°46.179 7.313753 3.504215 34.27962 16.410546
2004-03-22 10:03:25 51°19.854 2°46.155 7.318593 3.503793 34.273363 17.522956
2004-03-22 10:03:31 51°19.858 2°46.118 7.318593 3.503793 34.273363 17.522956
2004-03-22 10:03:36 51°19.861 2°46.087 7.320646 3.503793 34.270852 17.826341
2004-03-22 10:03:41 51°19.864 2°46.056 7.322455 3.504109 34.270103 16.74764
2004-03-22 10:03:45 51°19.866 2°46.032 7.323579 3.503688 34.262175 17.421828
2004-03-22 10:03:51 51°19.868 2°45.995 7.323971 3.503161 34.251431 16.612802
2004-03-22 10:03:56 51°19.87 2°45.964 7.326268 3.50295 34.247469 17.28699
2004-03-22 10:04:01 51°19.871 2°45.933 7.326268 3.50295 34.247469 17.28699
2004-03-22 10:04:06 51°19.873 2°45.903 7.324753 3.502845 34.243816 17.388118
2004-03-22 10:04:11 51°19.874 2°45.871 7.323384 3.502002 34.233822 17.691503
2004-03-22 10:04:16 51°19.874 2°45.839 7.324019 3.502213 34.233604 18.129725
2004-03-22 10:04:21 51°19.875 2°45.808 7.322895 3.502002 34.229644 18.230853
2004-03-22 10:04:25 51°19.876 2°45.782 7.323335 3.502213 34.231933 16.511674
2004-03-22 10:04:31 51°19.876 2°45.743 7.323335 3.502213 34.231933 16.511674
2004-03-22 10:04:36 51°19.877 2°45.711 7.321135 3.50158 34.225901 17.3207
2004-03-22 10:04:41 51°19.878 2°45.68 7.32182 3.501475 34.226427 17.624084
2004-03-22 10:04:45 51°19.878 2°45.654 7.32314 3.50158 34.225065 17.3207
2004-03-22 10:04:51 51°19.879 2°45.616 7.321477 3.501264 34.222467 16.410546
2004-03-22 10:04:55 51°19.88 2°45.59 7.31962 3.501264 34.223302 16.74764
2004-03-22 10:05:01 51°19.881 2°45.551 7.31962 3.501264 34.223302 16.74764
2004-03-22 10:05:05 51°19.882 2°45.525 7.315366 3.50137 34.226118 15.938614
2004-03-22 10:05:11 51°19.883 2°45.487 7.313166 3.50137 34.223611 15.197007
2004-03-22 10:05:16 51°19.884 2°45.454 7.312481 3.501475 34.226427 15.466683
2004-03-22 10:05:21 51°19.885 2°45.422 7.313753 3.501264 34.224973 15.432973
2004-03-22 10:05:25 51°19.885 2°45.397 7.307787 3.501264 34.228315 15.736358
2004-03-22 10:05:31 51°19.886 2°45.359 7.307787 3.501264 34.228315 15.736358
2004-03-22 10:05:36 51°19.887 2°45.328 7.308814 3.501159 34.229677 14.758785
2004-03-22 10:05:41 51°19.887 2°45.297 7.305783 3.500948 34.229894 15.938614
2004-03-22 10:05:45 51°19.888 2°45.272 7.304022 3.500948 34.229894 14.758785
2004-03-22 10:05:51 51°19.889 2°45.236 7.303582 3.501054 34.232711 16.410546
2004-03-22 10:05:55 51°19.889 2°45.211 7.299621 3.500948 34.234074 15.432973
2004-03-22 10:06:01 51°19.89 2°45.174 7.299621 3.500948 34.234074 15.432973
2004-03-22 10:06:05 51°19.891 2°45.149 7.299768 3.500843 34.233765 14.994751
2004-03-22 10:06:11 51°19.892 2°45.112 7.297518 3.500738 34.233455 15.500392
2004-03-22 10:06:16 51°19.893 2°45.081 7.295806 3.501159 34.238872 14.590238
2004-03-22 10:06:21 51°19.894 2°45.049 7.294192 3.500527 34.235345 15.06217
2004-03-22 10:06:25 51°19.894 2°45.023 7.291356 3.500527 34.237018 15.365554
2004-03-22 10:06:31 51°19.896 2°44.985 7.291356 3.500527 34.237018 15.365554
2004-03-22 10:06:36 51°19.896 2°44.953 7.292089 3.501054 34.243581 14.758785
2004-03-22 10:06:41 51°19.895 2°44.921 7.286464 3.500738 34.241818 15.904905
2004-03-22 10:06:45 51°19.895 2°44.896 7.286171 3.500738 34.241818 14.522819
2004-03-22 10:06:51 51°19.893 2°44.858 7.281328 3.500106 34.238291 15.02846
2004-03-22 10:06:56 51°19.892 2°44.826 7.281279 3.500317 34.243091 15.197007
2004-03-22 10:07:01 51°19.89 2°44.795 7.281279 3.500317 34.243091 15.197007
2004-03-22 10:07:05 51°19.889 2°44.769 7.280203 3.500527 34.247056 15.02846
2004-03-22 10:07:11 51°19.886 2°44.731 7.279029 3.500317 34.246438 14.961042
2004-03-22 10:07:16 51°19.885 2°44.699 7.278442 3.500527 34.252077 15.904905
2004-03-22 10:07:21 51°19.883 2°44.667 7.279029 3.500633 34.256572 15.432973
2004-03-22 10:07:25 51°19.882 2°44.641 7.278295 3.500001 34.249696 14.961042
2004-03-22 10:07:31 51°19.88 2°44.603 7.278295 3.500001 34.249696 14.961042
2004-03-22 10:07:35 51°19.878 2°44.577 7.271446 3.500422 34.25428 13.34299
2004-03-22 10:07:41 51°19.876 2°44.539 7.271201 3.500527 34.2571 14.219435
2004-03-22 10:07:45 51°19.875 2°44.514 7.268168 3.50137 34.265431 15.264426
2004-03-22 10:07:51 51°19.872 2°44.476 7.266993 3.500949 34.263359 14.590238
2004-03-22 10:07:56 51°19.87 2°44.445 7.263911 3.50116 34.268164 13.309281
2004-03-22 10:08:01 51°19.868 2°44.413 7.263911 3.50116 34.268164 13.309281
2004-03-22 10:08:05 51°19.867 2°44.388 7.261024 3.500949 34.268385 13.680084
2004-03-22 10:08:11 51°19.865 2°44.35 7.258039 3.50116 34.273191 14.623947
2004-03-22 10:08:16 51°19.863 2°44.319 7.256179 3.501686 34.279761 13.545247
2004-03-22 10:08:21 51°19.861 2°44.287 7.256571 3.501476 34.279145 13.781212
2004-03-22 10:08:25 51°19.86 2°44.262 7.257452 3.501581 34.282806 14.4554
2004-03-22 10:08:31 51°19.859 2°44.224 7.257452 3.501581 34.282806 14.4554
2004-03-22 10:08:35 51°19.857 2°44.199 7.25799 3.501897 34.290438 14.48911
2004-03-22 10:08:41 51°19.855 2°44.161 7.257843 3.502319 34.295864 13.713794
2004-03-22 10:08:45 51°19.854 2°44.136 7.257011 3.501687 34.291499 12.904768
2004-03-22 10:08:51 51°19.851 2°44.099 7.258186 3.501581 34.288675 14.286853
2004-03-22 10:08:55 51°19.849 2°44.075 7.2575 3.501792 34.290969 14.286853
2004-03-22 10:09:01 51°19.844 2°44.038 7.2575 3.501792 34.290969 14.286853
2004-03-22 10:09:05 51°19.84 2°44.013 7.2552 3.501687 34.289822 14.623947
2004-03-22 10:09:11 51°19.834 2°43.976 7.258283 3.501897 34.292954 14.826204
2004-03-22 10:09:15 51°19.83 2°43.951 7.257158 3.501897 34.292954 13.275571
2004-03-22 10:09:21 51°19.824 2°43.914 7.259262 3.501792 34.291807 14.522819
2004-03-22 10:09:25 51°19.819 2°43.89 7.25892 3.502845 34.304954 12.904768
2004-03-22 10:09:31 51°19.811 2°43.853 7.25892 3.502845 34.304954 12.904768
2004-03-22 10:09:36 51°19.804 2°43.822 7.258675 3.50116 34.28912 14.691366
2004-03-22 10:09:41 51°19.797 2°43.792 7.26122 3.501476 34.288367 13.511537
2004-03-22 10:09:46 51°19.789 2°43.762 7.25892 3.502319 34.29838 14.4554
2004-03-22 10:09:51 51°19.782 2°43.732 7.260534 3.501897 34.292954 13.646375
2004-03-22 10:09:56 51°19.773 2°43.702 7.25799 3.501897 34.292954 15.095879
2004-03-22 10:10:01 51°19.764 2°43.674 7.25799 3.501897 34.292954 15.095879
2004-03-22 10:10:06 51°19.755 2°43.645 7.254907 3.502529 34.297319 14.354272
2004-03-22 10:10:11 51°19.745 2°43.616 7.256864 3.502108 34.294409 13.309281
2004-03-22 10:10:15 51°19.737 2°43.593 7.255396 3.502424 34.297011 14.522819
2004-03-22 10:10:21 51°19.725 2°43.559 7.253683 3.502424 34.298688 12.904768
2004-03-22 10:10:25 51°19.716 2°43.537 7.255249 3.502424 34.298688 13.983469
2004-03-22 10:10:31 51°19.704 2°43.502 7.255249 3.502424 34.298688 13.983469
2004-03-22 10:10:36 51°19.694 2°43.474 7.255592 3.502424 34.297849 13.612665
2004-03-22 10:10:41 51°19.683 2°43.446 7.261709 3.502529 34.301513 14.017178
2004-03-22 10:10:46 51°19.672 2°43.418 7.256179 3.502529 34.303191 13.545247
2004-03-22 10:10:51 51°19.661 2°43.39 7.254271 3.502635 34.30266 13.848631
2004-03-22 10:10:56 51°19.649 2°43.364 7.252313 3.502845 34.304115 13.275571
2004-03-22 10:11:01 51°19.636 2°43.338 7.252313 3.502845 34.304115 13.275571
2004-03-22 10:11:06 51°19.623 2°43.312 7.251187 3.50274 34.30129 14.219435
2004-03-22 10:11:11 51°19.61 2°43.286 7.251236 3.503161 34.305877 13.477828
2004-03-22 10:11:16 51°19.596 2°43.261 7.252998 3.502951 34.305262 14.050888
2004-03-22 10:11:21 51°19.583 2°43.235 7.250649 3.502635 34.304338 14.219435
2004-03-22 10:11:25 51°19.573 2°43.215 7.252558 3.502951 34.310297 13.444118
2004-03-22 10:11:31 51°19.556 2°43.184 7.252558 3.502951 34.310297 13.444118
2004-03-22 10:11:36 51°19.543 2°43.158 7.248691 3.502845 34.30831 14.826204
2004-03-22 10:11:41 51°19.529 2°43.134 7.252215 3.502845 34.307471 14.421691
2004-03-22 10:11:45 51°19.519 2°43.113 7.251285 3.50274 34.306324 13.949759
2004-03-22 10:11:51 51°19.503 2°43.084 7.255886 3.503162 34.311751 14.017178
2004-03-22 10:11:56 51°19.489 2°43.06 7.256326 3.503056 34.311444 13.747503
2004-03-22 10:12:01 51°19.476 2°43.033 7.256326 3.503056 34.311444 13.747503
2004-03-22 10:12:05 51°19.466 2°43.014 7.251236 3.502845 34.307471 15.432973
2004-03-22 10:12:11 51°19.449 2°42.984 7.249181 3.503162 34.310073 14.253144
2004-03-22 10:12:16 51°19.437 2°42.958 7.248936 3.503267 34.308702 14.893623
2004-03-22 10:12:21 51°19.423 2°42.933 7.248153 3.502951 34.306101 15.466683
2004-03-22 10:12:25 51°19.413 2°42.912 7.252411 3.503162 34.308394 14.623947
2004-03-22 10:12:31 51°19.397 2°42.882 7.252411 3.503162 34.308394 14.623947
2004-03-22 10:12:35 51°19.387 2°42.861 7.253341 3.502951 34.310297 14.286853
2004-03-22 10:12:41 51°19.37 2°42.831 7.246782 3.502108 34.301959 13.511537
2004-03-22 10:12:46 51°19.358 2°42.805 7.246391 3.502213 34.303946 14.556529
2004-03-22 10:12:51 51°19.344 2°42.781 7.246391 3.502108 34.302799 13.781212
2004-03-22 10:12:55 51°19.334 2°42.76 7.246587 3.502213 34.302267 14.556529
2004-03-22 10:13:01 51°19.318 2°42.73 7.246587 3.502213 34.302267 14.556529
2004-03-22 10:13:07 51°19.303 2°42.699 7.244825 3.502424 34.30624 14.556529
2004-03-22 10:13:11 51°19.293 2°42.678 7.239196 3.50274 34.310521 13.444118
2004-03-22 10:13:15 51°19.282 2°42.658 7.235965 3.502529 34.309066 14.118306
2004-03-22 10:13:21 51°19.267 2°42.628 7.240224 3.502635 34.311892 14.556529
2004-03-22 10:13:25 51°19.256 2°42.608 7.239098 3.502319 34.30845 13.646375
2004-03-22 10:13:31 51°19.241 2°42.577 7.239098 3.502319 34.30845 13.646375
2004-03-22 10:13:35 51°19.23 2°42.557 7.236112 3.50253 34.314103 14.185725
2004-03-22 10:13:41 51°19.215 2°42.526 7.23572 3.502424 34.313795 14.961042
2004-03-22 10:13:45 51°19.204 2°42.506 7.23621 3.502424 34.316314 13.680084
2004-03-22 10:13:51 51°19.189 2°42.476 7.232244 3.502635 34.318609 14.4554
2004-03-22 10:13:56 51°19.176 2°42.451 7.232097 3.502424 34.317994 15.163298
2004-03-22 10:14:01 51°19.163 2°42.425 7.232097 3.502424 34.317994 15.163298
2004-03-22 10:14:05 51°19.153 2°42.404 7.233762 3.50253 34.318301 13.140734
2004-03-22 10:14:11 51°19.138 2°42.374 7.228817 3.502424 34.317154 14.522819
2004-03-22 10:14:16 51°19.125 2°42.348 7.231608 3.50253 34.321661 13.646375
2004-03-22 10:14:21 51°19.113 2°42.321 7.231755 3.502319 34.320206 12.837349
2004-03-22 10:14:25 51°19.102 2°42.302 7.230971 3.501897 34.314776 14.758785
2004-03-22 10:14:31 51°19.086 2°42.27 7.230971 3.501897 34.314776 14.758785
2004-03-22 10:14:36 51°19.074 2°42.244 7.232244 3.501897 34.315616 14.219435
2004-03-22 10:14:41 51°19.061 2°42.219 7.227936 3.501371 34.312397 13.410409
2004-03-22 10:14:45 51°19.049 2°42.198 7.229992 3.501581 34.315533 15.230717
2004-03-22 10:14:51 51°19.034 2°42.168 7.230433 3.501581 34.316373 14.421691
2004-03-22 10:14:55 51°19.023 2°42.149 7.227055 3.501265 34.312929 15.129589
2004-03-22 10:15:00 51°19.011 2°42.122 7.227055 3.501265 34.312929 15.129589
2004-03-22 10:15:05 51°18.998 2°42.096 7.225341 3.502003 34.320123 14.219435
2004-03-22 10:15:11 51°18.983 2°42.066 7.224215 3.501581 34.316373 14.556529
2004-03-22 10:15:15 51°18.971 2°42.045 7.224705 3.501898 34.319816 14.219435
2004-03-22 10:15:21 51°18.957 2°42.014 7.22211 3.501687 34.320041 14.050888
2004-03-22 10:15:27 51°18.94 2°41.985 7.223823 3.501265 34.315449 14.657657
2004-03-22 10:15:31 51°18.93 2°41.963 7.223823 3.501265 34.315449 14.657657
2004-03-22 10:15:35 51°18.92 2°41.943 7.22255 3.50116 34.315982 14.219435
2004-03-22 10:15:41 51°18.904 2°41.912 7.219955 3.500844 34.312538 14.152016
2004-03-22 10:15:45 51°18.894 2°41.891 7.2202 3.500844 34.315059 14.657657
2004-03-22 10:15:51 51°18.878 2°41.861 7.219514 3.500844 34.313378 14.118306
2004-03-22 10:15:56 51°18.866 2°41.837 7.217605 3.500949 34.316207 15.567811
2004-03-22 10:16:01 51°18.852 2°41.812 7.217605 3.500949 34.316207 15.567811
2004-03-22 10:16:05 51°18.843 2°41.792 7.221473 3.500739 34.313911 14.826204
2004-03-22 10:16:11 51°18.827 2°41.761 7.220983 3.500212 34.309852 14.927332
2004-03-22 10:16:16 51°18.815 2°41.734 7.222061 3.500423 34.311307 15.095879
2004-03-22 10:16:21 51°18.802 2°41.709 7.224558 3.499896 34.305568 14.387982
2004-03-22 10:16:25 51°18.791 2°41.688 7.223432 3.499685 34.302432 15.298136
2004-03-22 10:16:31 51°18.776 2°41.656 7.223432 3.499685 34.302432 15.298136
2004-03-22 10:16:35 51°18.766 2°41.636 7.224949 3.499369 34.300668 14.994751
2004-03-22 10:16:41 51°18.751 2°41.604 7.223823 3.499158 34.298373 13.545247
2004-03-22 10:16:45 51°18.741 2°41.583 7.222452 3.498948 34.295237 14.792494
2004-03-22 10:16:51 51°18.726 2°41.552 7.221473 3.499053 34.295545 15.331845
2004-03-22 10:16:56 51°18.713 2°41.526 7.220837 3.498737 34.296301 14.084597
2004-03-22 10:17:01 51°18.7 2°41.502 7.220837 3.498737 34.296301 14.084597
2004-03-22 10:17:05 51°18.69 2°41.481 7.221081 3.498421 34.28614 14.590238
2004-03-22 10:17:11 51°18.674 2°41.45 7.220592 3.499158 34.298373 15.06217
2004-03-22 10:17:16 51°18.662 2°41.425 7.221473 3.497578 34.280316 13.140734
2004-03-22 10:17:21 51°18.649 2°41.399 7.219808 3.49821 34.288042 15.264426
2004-03-22 10:17:25 51°18.64 2°41.377 7.219368 3.498 34.286586 14.522819
2004-03-22 10:17:31 51°18.624 2°41.347 7.219368 3.498 34.286586 14.522819
2004-03-22 10:17:35 51°18.614 2°41.325 7.223187 3.498737 34.292942 13.814922
2004-03-22 10:17:41 51°18.599 2°41.294 7.224313 3.498316 34.28835 13.814922
2004-03-22 10:17:45 51°18.589 2°41.272 7.223823 3.49821 34.288042 14.758785
2004-03-22 10:17:51 51°18.574 2°41.241 7.222061 3.498526 34.292325 13.646375
2004-03-22 10:17:55 51°18.563 2°41.22 7.222942 3.498316 34.29003 15.06217
2004-03-22 10:18:01 51°18.549 2°41.189 7.222942 3.498316 34.29003 15.06217
2004-03-22 10:18:05 51°18.538 2°41.169 7.220837 3.49821 34.288042 14.48911
2004-03-22 10:18:11 51°18.523 2°41.137 7.22211 3.498105 34.286055 14.4554
2004-03-22 10:18:15 51°18.513 2°41.116 7.22162 3.497894 34.28292 13.612665
2004-03-22 10:18:21 51°18.498 2°41.085 7.221718 3.498842 34.294089 14.421691
2004-03-22 10:18:25 51°18.487 2°41.065 7.224803 3.497473 34.27749 13.949759
2004-03-22 10:18:31 51°18.472 2°41.033 7.224803 3.497473 34.27749 13.949759
2004-03-22 10:18:36 51°18.459 2°41.007 7.225635 3.497789 34.28429 14.826204
2004-03-22 10:18:41 51°18.447 2°40.98 7.22446 3.497578 34.282834 14.590238
2004-03-22 10:18:46 51°18.435 2°40.954 7.225488 3.497894 34.285438 14.556529
2004-03-22 10:18:51 51°18.422 2°40.928 7.223334 3.497473 34.279168 14.623947
2004-03-22 10:18:56 51°18.409 2°40.902 7.224558 3.497683 34.278946 14.590238
2004-03-22 10:19:01 51°18.397 2°40.874 7.224558 3.497683 34.278946 14.590238
2004-03-22 10:19:05 51°18.387 2°40.854 7.224313 3.497683 34.278946 14.4554
2004-03-22 10:19:11 51°18.372 2°40.823 7.222452 3.496841 34.268926 13.680084
2004-03-22 10:19:15 51°18.362 2°40.801 7.224998 3.497473 34.275811 16.039742
2004-03-22 10:19:21 51°18.347 2°40.77 7.22681 3.497473 34.279168 15.197007
2004-03-22 10:19:25 51°18.337 2°40.748 7.225194 3.496841 34.271443 15.129589
2004-03-22 10:19:31 51°18.321 2°40.718 7.225194 3.496841 34.271443 15.129589
2004-03-22 10:19:35 51°18.312 2°40.695 7.227936 3.497367 34.277181 14.286853
2004-03-22 10:19:41 51°18.296 2°40.665 7.228181 3.497051 34.272899 15.129589
2004-03-22 10:19:45 51°18.287 2°40.643 7.228377 3.497051 34.271221 13.747503
2004-03-22 10:19:51 51°18.271 2°40.613 7.229013 3.497157 34.27153 13.781212
2004-03-22 10:19:56 51°18.258 2°40.587 7.226418 3.497473 34.273294 15.163298
2004-03-22 10:20:01 51°18.246 2°40.559 7.226418 3.497473 34.273294 15.163298
2004-03-22 10:20:05 51°18.236 2°40.538 7.230825 3.497367 34.272986 14.859913
2004-03-22 10:20:11 51°18.221 2°40.507 7.227446 3.497157 34.270691 14.893623
2004-03-22 10:20:15 51°18.212 2°40.485 7.229992 3.496841 34.267248 15.331845
2004-03-22 10:20:21 51°18.196 2°40.454 7.229209 3.497157 34.269013 14.994751
2004-03-22 10:20:25 51°18.187 2°40.433 7.229943 3.497157 34.269013 15.331845
2004-03-22 10:20:31 51°18.171 2°40.402 7.229943 3.497157 34.269013 15.331845
2004-03-22 10:20:35 51°18.162 2°40.38 7.230922 3.497473 34.272455 13.848631
2004-03-22 10:20:41 51°18.146 2°40.35 7.228524 3.497367 34.271308 13.91605
2004-03-22 10:20:45 51°18.137 2°40.328 7.230825 3.497262 34.269321 15.06217
2004-03-22 10:20:51 51°18.122 2°40.296 7.235426 3.497473 34.272455 16.039742
2004-03-22 10:20:55 51°18.112 2°40.275 7.231951 3.497578 34.272764 13.309281
2004-03-22 10:21:01 51°18.097 2°40.243 7.231951 3.497578 34.272764 13.309281
2004-03-22 10:21:05 51°18.087 2°40.223 7.233664 3.497367 34.270469 14.320563
2004-03-22 10:21:11 51°18.072 2°40.191 7.229992 3.497262 34.266805 14.387982
2004-03-22 10:21:15 51°18.062 2°40.172 7.231608 3.497473 34.270777 14.4554
2004-03-22 10:21:21 51°18.047 2°40.14 7.232048 3.497683 34.271395 15.365554
2004-03-22 10:21:25 51°18.037 2°40.12 7.22965 3.497262 34.264289 14.118306
2004-03-22 10:21:31 51°18.022 2°40.089 7.22965 3.497262 34.264289 14.118306
2004-03-22 10:21:36 51°18.011 2°40.065 7.231804 3.497157 34.266496 14.354272
2004-03-22 10:21:41 51°18 2°40.041 7.232832 3.497473 34.2691 14.893623
2004-03-22 10:21:46 51°17.989 2°40.019 7.232734 3.497157 34.266496 13.713794
2004-03-22 10:21:51 51°17.979 2°39.997 7.231265 3.496946 34.263363 14.556529
2004-03-22 10:21:56 51°17.969 2°39.977 7.236014 3.49684 34.263054 14.522819
2004-03-22 10:22:01 51°17.959 2°39.956 7.236014 3.49684 34.263054 14.522819
2004-03-22 10:22:06 51°17.948 2°39.938 7.232587 3.49684 34.261377 14.556529
2004-03-22 10:22:11 51°17.939 2°39.918 7.232783 3.497262 34.265966 15.02846
2004-03-22 10:22:16 51°17.929 2°39.9 7.232097 3.49684 34.262215 15.230717
2004-03-22 10:22:21 51°17.919 2°39.882 7.228915 3.497262 34.265966 14.623947
2004-03-22 10:22:25 51°17.912 2°39.868 7.229062 3.496946 34.262524 14.4554
2004-03-22 10:22:31 51°17.899 2°39.849 7.229062 3.496946 34.262524 14.4554
2004-03-22 10:22:36 51°17.889 2°39.832 7.229552 3.496735 34.259391 14.927332
2004-03-22 10:22:41 51°17.879 2°39.816 7.232293 3.496419 34.257626 15.432973
2004-03-22 10:22:46 51°17.869 2°39.8 7.22965 3.49663 34.261598 15.736358
2004-03-22 10:22:51 51°17.859 2°39.785 7.231461 3.496946 34.266718 13.511537
2004-03-22 10:22:55 51°17.851 2°39.772 7.232587 3.496208 34.258686 14.253144
2004-03-22 10:23:01 51°17.839 2°39.754 7.232587 3.496208 34.258686 14.253144
2004-03-22 10:23:05 51°17.831 2°39.742 7.232881 3.49684 34.263893 14.725076
2004-03-22 10:23:11 51°17.82 2°39.725 7.235328 3.496524 34.261289 15.534101
2004-03-22 10:23:16 51°17.811 2°39.711 7.23386 3.496524 34.260451 15.02846
2004-03-22 10:23:21 51°17.803 2°39.698 7.23479 3.49684 34.263893 15.02846
2004-03-22 10:23:25 51°17.798 2°39.687 7.238902 3.497051 34.265349 14.961042
2004-03-22 10:23:31 51°17.791 2°39.67 7.238902 3.497051 34.265349 14.961042
2004-03-22 10:23:36 51°17.787 2°39.657 7.23807 3.496735 34.261068 15.500392
2004-03-22 10:23:41 51°17.783 2°39.645 7.235867 3.49663 34.259082 15.60152
2004-03-22 10:23:46 51°17.78 2°39.633 7.235818 3.496735 34.258553 13.34299
2004-03-22 10:23:51 51°17.777 2°39.622 7.23807 3.496946 34.25917 15.432973
2004-03-22 10:23:55 51°17.775 2°39.614 7.237923 3.497156 34.259788 13.241862
2004-03-22 10:24:01 51°17.772 2°39.602 7.237923 3.497156 34.259788 13.241862
2004-03-22 10:24:06 51°17.77 2°39.594 7.236112 3.497156 34.260626 13.275571
2004-03-22 10:24:11 51°17.768 2°39.588 7.239342 3.496946 34.25917 13.174443
2004-03-22 10:24:16 51°17.767 2°39.582 7.240615 3.496735 34.256876 15.197007
2004-03-22 10:24:21 51°17.765 2°39.577 7.239489 3.497262 34.261773 14.084597
2004-03-22 10:24:25 51°17.764 2°39.573 7.235426 3.497051 34.259479 15.163298
2004-03-22 10:24:31 51°17.763 2°39.569 7.235426 3.497051 34.259479 15.163298
2004-03-22 10:24:36 51°17.761 2°39.568 7.235573 3.49663 34.254052 13.241862
2004-03-22 10:24:41 51°17.759 2°39.567 7.236259 3.497051 34.260317 14.859913
2004-03-22 10:24:45 51°17.757 2°39.566 7.238363 3.496946 34.260009 12.938477
2004-03-22 10:24:51 51°17.755 2°39.565 7.238315 3.496735 34.258553 13.005896
2004-03-22 10:24:55 51°17.754 2°39.564 7.238706 3.496524 34.256258 14.657657
2004-03-22 10:25:01 51°17.752 2°39.563 7.238706 3.496524 34.256258 14.657657
2004-03-22 10:25:06 51°17.75 2°39.563 7.240762 3.49663 34.256567 13.073315
2004-03-22 10:25:11 51°17.748 2°39.562 7.23665 3.496946 34.260009 14.961042
2004-03-22 10:25:17 51°17.746 2°39.561 7.236552 3.49684 34.2597 13.612665
2004-03-22 10:25:21 51°17.745 2°39.561 7.235182 3.496946 34.25917 13.882341
2004-03-22 10:25:27 51°17.743 2°39.561 7.235279 3.496946 34.260009 13.34299
2004-03-22 10:25:31 51°17.742 2°39.561 7.235279 3.496946 34.260009 13.34299
2004-03-22 10:25:36 51°17.74 2°39.561 7.233566 3.49663 34.255728 14.522819
2004-03-22 10:25:41 51°17.739 2°39.561 7.234839 3.496735 34.259391 14.286853
2004-03-22 10:25:46 51°17.737 2°39.561 7.234692 3.49684 34.260538 14.590238
2004-03-22 10:25:51 51°17.736 2°39.561 7.234007 3.496735 34.259391 14.758785
2004-03-22 10:25:56 51°17.734 2°39.561 7.234154 3.49663 34.259082 14.219435